Overblog
Suivre ce blog Administration + Créer mon blog
6 janvier 2012 5 06 /01 /janvier /2012 09:54

DAKAR-2012-CASTEU.jpg

David Casteu septième ,à l’attaque sur sa Yamaha

Classement général Dakar Moto aprés la cinquième étape

Rang Numéro Pilote/Equipage Equipe Marque - Modèle Temps Retard
1 002 DESPRES Cyril TEAM RED BULL KTM KTM - 450cc Rally 14:19:00  
2 001 COMA Marc KTM MRW RALLY DAKAR EAM KTM - 450 cc 14:28:51 00:09:51
3 003 RODRIGUES Helder TEAM YAMAHA RACING YAMAHA - WRF 450 15:06:56 00:47:56
4 004 LOPEZ Francisco GIOFIL APRILIA APRILIA - 450 RXV TUAREG 15:08:00 00:49:00
5 007 GONCALVES Paulo HUSQVARNA RALLYE TEAM BY SPEEDBRAIN Husqvarna - Rally 450 RR 15:13:47 00:54:47
6 010 VILADOMS Jordi BORDONE-FERRARI KTM - Rally Replica 15:17:17 00:58:17
7 014 CASTEU David TEAM YAMAHA RACING YAMAHA - 450 WRF Rally 15:17:58 00:58:58
8 020 FARRES GUELL Gerard BORDONE-FERRARI KTM - 450 RALLY REPLICA 15:22:13 01:03:13
9 032 SVITKO Stefan HANT LOGOMOTION SLOVAKIA KTM - 450 RR 15:26:26 01:07:26
10 005 PEDRERO GARCIA Juan KTM MRW RALLY DAKAR EAM KTM - 450cc Rally 15:33:04 01:14:04
11 016 PAIN Olivier TEAM YAMAHA RACING YAMAHA - 450 YZF Rally 15:33:18 01:14:18
12 034 BOTTURI ALESSANDRO BORDONE-FERRARI KTM - 450 RALLY REPLICA 15:39:08 01:20:08
13 027 PIZZOLITO Javier HONDA RACING ARGENTINA HONDA - CRF 450X 15:41:41 01:22:41
14 006 ULLEVALSETER Pal Anders TEAM ULLEVALSETER KTM - 450 R 15:53:59 01:34:59
15 025 GOUET Daniel TAMARUGAL HONDA RACING XC RALLY TEAM HONDA - CRF 450 X 15:55:29 01:36:29
16 026 RODRIGUES FILHO Jose helio HUSQVARNA RALLYE TEAM BY SPEEDBRAIN HUQSVARNA - RALLY 450 RR 16:03:17 01:44:17
17 028 ZANOL FELIPE KTM BRASIL KTM - 450 Replica 16:07:38 01:48:38
18 022 DUCLOS Alain GIOFIL APRILIA APRILIA - RXV 4.5 Rally 16:12:15 01:53:15
19 008 FARIA Ruben TEAM RED BULL KTM KTM - 450 CC RALLY 16:12:54 01:53:54
20 017 CZACHOR Jacek ORLEN TEAM KTM - 450 Replica 16:14:32 01:55:32
21 021 AUBERT JOHNNY KTM RALLY FACTORY TEAM KTM - 450 RALLY 16:28:03 02:09:03
22 039 GYENES Emanuel VECTRA RACING KTM - 450 RR 16:30:53 02:11:53
23 024 STANOVNIK Miran TEAM SUGAWARA KTM - 450 R 16:31:17 02:12:17
24 082 GUINDANI Vincent HFP YAMAHA - YZR 450 16:32:23 02:13:23
25 018 KNUIMAN Henk WIM MOTORS DAKAR KTM - 450 REPLICA 16:35:59 02:16:59
26 035 CECI Paolo BORDONE-FERRARI KTM - 450 RR 16:37:29 02:18:29
27 043 PISANO Michael MP CONCEPT KTM - 450 RR 16:38:37 02:19:37
28 040 SERRADORI Mathieu   KTM - 450 Rally 16:52:25 02:33:25
29 033 BETHYS Thierry   YAMAHA - 450 YZF Rally 17:07:00 02:48:00
30 012 PELLICER Jose Manuel HUSQVARNA RALLYE TEAM BY SPEEDBRAIN HUSQVARNA - Rally 450 RR 17:19:56 03:00:56
31 015 VERHOEVEN Frans SHERCO RALLY RAID - CROCOAVENTURES SHERCO - SR 450 17:28:23 03:09:23
32 023 BARREDA BORT Joan HUSQVARNA RALLYE TEAM BY SPEEDBRAIN HUSQVARNA - Rally 450 RR 17:32:26 03:13:26
33 048 LIEFHEBBER Hans-jos   KTM - 450 RR 17:34:59 03:15:59
34 064 SCHRÖDER DANIEL MEMO TOURS - ALFIE COX TEAM KTM - 450cc 17:35:44 03:16:44
35 049 DABROWSKI Marek ORLEN TEAM KTM - 450 RR 17:37:01 03:18:01
36 057 WILLEMSEN Daniel TEAM HONDA EUROPE HONDA - CRF 450 X 17:48:13 03:29:13
37 144 CURTIS Darryl MEMO TOURS - ALFIE COX TEAM KTM - 450 Replica 17:49:29 03:30:29
38 041 PROHENS Felipe TAMARUGAL HONDA RACING XC RALLY TEAM HONDA (Transformada) - CRF450X RALLY 17:55:49 03:36:49
39 089 NASCIMENTO DENISIO PETROBRAS LUBRAX HONDA - CRF 450 17:57:16 03:38:16
40 042 PROHENS Jaime TAMARUGAL HONDA RACING XC RALLY TEAM HONDA - CRF 450X RALLY 18:07:28 03:48:28
41 145 NUTTALL Dean MEMO TOURS - ALFIE COX TEAM KTM - 450 Replica 18:22:36 04:03:36
42 183 RODRIGUEZ Pablo HONDA RACING ARGENTINA HONDA - CRF450X 18:24:04 04:05:04
43 173 MALO WILSON WILSON MALO KTM DEL ECUADOR KTM - 450 RALLY 2010 18:26:40 04:07:40
44 066 LORMAND Etienne ROUSSILL'HOTEL - HFP YAMAHA - 450 WRF 18:33:36 04:14:36
45 081 SUESSE NED ADVRIDER/ NEDURO KTM - 450XCW 18:35:42 04:16:42
46 060 WATT Stanley FRONT ROW GB / CRECENT KTM KTM - 450 RR 18:42:57 04:23:57
47 110 BIRCH Christopher MEMO TOURS - ALFIE COX TEAM KTM - 450 Replica 18:55:11 04:36:11
48 053 RODRIGUEZ Claudio TAMARUGAL HONDA RACING XC RALLY TEAM HONDA - CRF 450 X 19:14:26 04:55:26
49 051 ARREDONDO Francisco TEAM GUATEMALA KTM - 450 RALLY 19:18:04 04:59:04
50 086 MUNK Jes X-RAGE RACING KTM - 450 19:24:40 05:05:40
51 138 LECOQ SEBASTIEN TEAM PERFORMANCE ENDURO YAMAHA - 450 YZFE 19:30:13 05:11:13
52 071 BUTUZA Marcel BOANO HONDA - CRE F 450 X 19:41:59 05:22:59
53 058 PUERTAS HERRERA Miguel HIMOINSA DAKAR TEAM YAMAHA - 450 WR 19:43:29 05:24:29
54 181 RIOS FELIPE KTM PERU RALLY TEAM KTM - Rally Replica 19:44:30 05:25:30
55 184 SAKIR SENKALAYCI TURKISH TEAM KTM - 450 RALLY EXC 19:46:15 05:27:15
56 154 GAJDOSECH ROBERTO ANTONIO ATUEL MOTOS YAMAHA - WR 450 19:48:09 05:29:09
57 045 SANZ PLA-GILIBERT Eulalia GAS GAS GAS - GAS - EC 450 19:48:23 05:29:23
58 062 SCHWARZ David HUSABERG RALLYE RACING AUSTRALIA HUSABERG - FE450 19:48:52 05:29:52
59 030 GUASCH Marc GAS GAS GAS - GAS - EC 450 19:49:09 05:30:09
60 067 BALOOSHI MOHAMMED RED BULL KTM - 450 RR 19:54:07 05:35:07
61 185 SANCHEZ MARCELO TEAM RPM KAWASAKI KAWASAKI - KLX 450 R 19:54:30 05:35:30
62 046 BIANCHI PRATA Pedro TEAM BIANCHI PRATA / VODAFONE HUSQUARNA - TE449 RALLY 19:57:04 05:38:04
63 087 MEILLAT Christophe C.M PROMO KAWASAKI - KLX 450 R 19:59:19 05:40:19
64 061 MATTOS Dimas BRASIL MOTO TOUR KTM - 450 RR 20:16:02 05:57:02
65 148 GOMEZ Mauricio PACO GOMEZ RALLY TEAM YAMAHA - WR 450 20:19:26 06:00:26
66 065 LAZARD Laurent MOTO TEAM BY ELF YAMAHA - WR 450 20:22:35 06:03:35
67 059 CIOTTI Filippo FRANCO PICCO RACING RIEJU - MRT 450 20:26:05 06:07:05
68 029 BERGLUND Thomas HUSABERG RALLY TEAM SCANDINAVIA HUSABERG - FE 450 20:27:14 06:08:14
69 077 PICCO Franco FRANCO PICCO RACING YAMAHA - WRF 450 20:28:06 06:09:06
70 168 GUIRAL DEMIAN AVANT MOTOS HONDA GENUINE OIL HONDA - CRF 450X 20:30:01 06:11:01
71 075 BUSIN Pablo MOTO TEAM BY ELF YAMAHA - 450 WR 20:39:19 06:20:19
72 050 SALVATIERRA Juan Carlos GHR HONDA HONDA - CRF450X 20:41:37 06:22:37
73 100 VESELY Jan CZECH DAKAR TEAM YAMAHA - WR 450F 20:42:29 06:23:29
74 092 HAMARD Stephane REUNION RALLYE RAID KTM - 450 RR 20:45:47 06:26:47
75 165 MULDER GEERT TEAM HONDA EUROPE HONDA - CFR 450 X 20:55:23 06:36:23
76 149 CIPKA DUSAN SLOVAKIA TURBOTEAM ZATKO BMW - G450X 21:07:37 06:48:37
77 068 BARROT David POWERBIKE YAMAHA IPONE YAMAHA - 450 IZF RALLY 21:08:49 06:49:49
78 177 VAN GEEL MARCO TEAM HONDA EUROPE HONDA - CFR 450 X 21:17:26 06:58:26
79 056 MENARD Jean-Christophe HFP YAMAHA - 450 YZF 21:22:35 07:03:35
80 159 CHITTICK Jamie GHR HONDA HONDA - CRF450X 21:25:48 07:06:48
81 098 BLONDEAU CHRISTOPHE TEAM FRANROC YAMAHA - YZF 450 21:41:22 07:22:22
82 172 LUCCHESE MANUEL HUSABERG FACTORY TEAM HUSABERG - FE 450 RALLY 21:41:38 07:22:38
83 164 DEMELCHORI DIEGO TEAM RPM KAWASAKI KAWASAKI - 2009 22:01:06 07:42:06
84 091 TONETTI NICOLA TEAM BOANO HONDA - CRF 450 X 22:10:17 07:51:17
85 072 GOUNON SERGE EMS KTM - 450 RR 22:13:45 07:54:45
86 122 PALANTE Eric WIM MOTORS RACING DIVISION KTM - 450 RR FREVA 22:20:11 08:01:11
87 093 GOMEZ Jorge VEMOTOR CANARIAS Husqvarna - 450cc 22:22:43 08:03:43
88 074 KOFMAN Erik   KTM - 450 RR 22:23:11 08:04:11
89 069 PAYEN Hugo   YAMAHA - 450 WRF 22:55:11 08:36:11
90 076 PEDERZOLI Claudio ON-OFF RACING TEAM YAMAHA - WR 450 23:18:59 08:59:59
91 170 KREIDL FERDINAND KLS ADVANCE RALLYE RAID TEAM KTM - 450 Replica 23:38:40 09:19:40
92 107 BODINGER Ronnie HUSABERG FACTORY TEAM HUSABERG - FE 450 24:23:45 10:04:45
93 080 PASCUAL Pablo oscar JINCHENG TEAM JINCHENG - JC450Y 24:25:00 10:06:00
94 174 MARTÍNEZ Paco PACO MARTINEZ KAWASAKI - KX450 24:25:51 10:06:51
95 116 GEOFFROY Christophe TB RACING HONDA - F 450 XE 24:32:53 10:13:53
96 131 THEURIOT Herve REVIVAL AVENTURES YAMAHA - 450 WRF 24:43:30 10:24:30
97 150 BELAUSTEGUI Luis FREEDOM RALLY RACING KTM - SX 150 24:47:10 10:28:10
98 176 RAAF Greg MEMO TOURS - ALFIE COX TEAM KTM - 450 Replica 24:55:41 10:36:41
99 102 ALAN Eduardo ELF ARGENTINA Yamaha - WR 450 25:05:58 10:46:58
100 120 ILLANES Rodrigo TARAPACA RALLY TEAM Husqvarna - TE 449 25:08:01 10:49:01
101 106 EMBRO JAMES MEMO TOURS - ALFIE COX TEAM KTM - 450 RALLY 25:12:22 10:53:22
102 099 CHERPIN Pierre   KTM - 450 RR 25:38:47 11:19:47
103 073 BONY BRUNO EMS KTM - 450 RR 25:41:54 11:22:54
104 090 DIGUIET Gilles   KTM - 450 CC 25:52:59 11:33:59
105 178 VAN WOERKUM JAN TEAM HONDA EUROPE HONDA - CFR 450 X 26:08:25 11:49:25
106 109 BUDWEG ARNDT BRASIL MOTO TOUR KTM - 450 RR 26:14:57 11:55:57
107 158 VELLUTINO Carlo PERUANOS AL DAKAR KTM - 450 EXC 2011 26:29:48 12:10:48
108 151 BEALUSTEGUI Juan Manuel AL LIMITE DAKAR 2012 YAMAHA - WR 450 F 26:39:55 12:20:55
109 095 MAZET Jean-Claude JCM RALLYE RAID KTM - 450 RR 26:44:11 12:25:11
110 136 IGARIS GINTAUTAS   YAMAHA - WR450F 26:57:06 12:38:06
111 104 DE BENEDICTIS NETO Vicente   Beta - RR 450 27:39:12 13:20:12
112 094 WEI Guanghui JINCHENG TEAM JINCHENG - JC 450Y 27:41:27 13:22:27
113 112 GUYOMARC?H Yannick SCE PERFORMANCE / ASA POMPIERS DE PARIS YAMAHA - WRF 27:45:58 13:26:58
114 085 PENATE MUNOZ Pedro Manuel KH7 VALSEBIKE KTM - 450 28:04:15 13:45:15
115 111 ESPINASSE SYLVAIN SHERCO RALLY RAID - CROCOAVENTURES SHERCO - SR 450 28:57:30 14:38:30
116 125 ASTORI Gianernesto ABC RALLY ACTION TEAM KTM - 450 RR 29:51:17 15:32:17
117 129 DEPOORTER Philippe WIM MOTORS DAKAR KTM - 450 29:57:29 15:38:29
118 152 TER BEEK RONALD GHR HONDA HONDA - CFR 450 X 30:38:15 16:19:15
119 105 BARRON Jacques PERUANOS AL DAKAR KTM - 450 EXL 31:22:27 17:03:27
120 140 REINIKE MARCO MARCO REINIKE KTM - 450 RALLY REPLICA 32:41:22 18:22:22

Partager cet article

Repost0
6 janvier 2012 5 06 /01 /janvier /2012 09:27

DAKAR-2012-ROBBY-GORDON.jpg

 Second de la cinquième étape Robby Gordon, met la pression sur les minis, Peterhansel reste en tête

Classement général Dakar  Auto aprés la cinquième étape

Rang Numéro Pilote/Equipage Equipe Marque - Modèle Temps Retard
1 302 PETERHANSEL Stephane MONSTER ENERGY X-RAID TEAM MINI - ALL 4 RACING 11:58:03  
2 304 HOLOWCZYC Krzysztof ORLEN X-RAID TEAM MINI - ALL4 RACING 12:02:21 00:04:18
3 305 ROMA Joan (Nani) MONSTER ENERGY X-RAID TEAM MINI - ALL4 RACING 12:08:42 00:10:39
4 303 GORDON Robby SPEED ENERGY RACING HUMMER - H3 12:11:35 00:13:32
5 301 DE VILLIERS Giniel IMPERIAL TOYOTA TOYOTA - PICKUP HILUX 12:19:04 00:21:01
6 312 NOVITSKIY Leonid MONSTER ENERGY X-RAID TEAM MINI - ALL4 RACING 12:28:54 00:30:51
7 307 SOUSA Carlos TEAM GREAT WALL GREAT WALL - HAVAL 12:38:58 00:40:55
8 300 AL-ATTIYAH Nasser saleh TEAM QATAR Hummer - H3 12:48:50 00:50:47
9 315 VAN LOON Erik XDAKAR.COM MITSUBISHI - RACING LANCER 12:51:36 00:53:33
10 319 ALVAREZ Lucio ezequiel TOYOTA OVERDRIVE TOYOTA - HILUX PROTOTIPO 12:57:13 00:59:10
11 317 WEVERS Erik Riwald Dakar Team MITSUBISHI - RACING LANCER MRP10 13:00:38 01:02:35
12 313 VOS DUNCAN IMPERIAL TOYOTA TOYOTA - HILUX 13:17:52 01:19:49
13 321 THOMASSE Pascal MD RALLYE SPORT MD RALLYE - BUGGY OPTIMUS 13:34:04 01:36:01
14 337 HUZINK GERT RIWALD DAKAR TEAM MITSUBISHI - RACING LANCER MRP10 13:45:52 01:47:49
15 325 GARAFULIC Boris MONSTER ENERGY X-RAID TEAM BMW - X3 CC 13:52:00 01:53:57
16 314 TEN BRINKE Bernhar Riwald Dakar Team MITSUBISHI - RACING LANCER MRP10 14:00:12 02:02:09
17 326 DE AZEVEDO Jean PETROBRAS LUBRAX NISSAN - NAVARRA 14:03:02 02:04:59
18 369 GARCIA FRANCISCO JOSE SIXT UKRAINA SUBARU - FORESTER 14:48:26 02:50:23
19 323 ERRANDONEA BERNARD SMG SMG - BUGGY 15:05:51 03:07:48
20 309 LEAL DOS SANTOS Ricardo MONSTER ENERGY X-RAID TEAM MINI - ALL4 RACING 15:06:06 03:08:03
21 316 CHABOT Ronan TOYS - MOTORS - SMG SMG - BUGGY V8 15:09:31 03:11:28
22 359 CORBETT Mark CENTURY PROPERTY DEVELOPMENTS RACING Century Racing - CR4 15:30:35 03:32:32
23 320 PATISSIER Isabelle TEAM DESSOUDE DESSOUDE - BUGGY ORYX essence 15:56:20 03:58:17
24 333 ZHOU Yuande CHENGDU RURAL COMMERCIAL BANK TEAM CHINA MITSUBISHI - L200 15:58:01 03:59:58
25 339 MITSUHASHI Jun TEAM LAND CRUISER TOYOTA AUTO BODY TOYOTA - VDJ200 16:01:29 04:03:26
26 378 MELNIKOV Anton REAUTOKLUBS MITSUBISHI - L200 TRITON 16:06:31 04:08:28
27 331 MAGNALDI Thierry TEAM DESSOUDE DESSOUDE - BUGGY ORYX Diesel 16:07:02 04:08:59
28 343 NESTERCHUK Vadym SIXT UKRAINA MITSUBISHI - L200 16:09:16 04:11:13
29 340 FOJ Javier TOYOTA PRISMA MTA TOYOTA - LAND CRUISER 155 16:21:14 04:23:11
30 383 SISTERNA Lino FAST & SPEED FAST & SPEED - prototipo buggy Evo III 16:26:20 04:28:17
31 335 ZHOU Jihong TEAM DESSOUDE PROTO DESSOUDE - N05 16:30:45 04:32:42
32 348 LEON Fernando AUTO GASCO TOYOTA - FJ CRUISER 16:48:33 04:50:30
33 322 MIRONENKO Alexander X-RAID TEAM BMW - X3 CC 16:57:07 04:59:04
34 346 ALHERAIZ Abdulla TEAM LARDEAU COMPETITION TOYOTA - LAND CRUISER 17:07:16 05:09:13
35 332 OGORODNIKOV LEONID AMAROK OVERDRIVE VOLKSWAGEN - AMAROK OVERDRIVE 17:10:59 05:12:56
36 349 KUZNETSOV Ilja REAUTOKLUBS MITSUBISHI - MPR10 17:12:08 05:14:05
37 357 SILVA JUAN MANUEL LA LEGION ARGENTINA SPEEDAGRO VOLKSWAGEN - AMAROK 17:29:35 05:31:32
38 310 SPINELLI Guilherme MITSUBISHI BRAZIL MITSUBISHI - Racing Lancer 17:34:34 05:36:31
39 334 SZALAY Balazs OPEL DAKAR TEAM OPEL - ANTARA RR 17:38:38 05:40:35
40 372 MALYSZ ADAM RMF CAROLINE TEAM MITSUBISHI - PAJERO 17:41:22 05:43:19
41 345 ZHOU Yong TEAM GREAT WALL GREAT WALL - HAVAL SUV 17:57:28 05:59:25
42 376 HEYMANN Raz   BMW - Self construction. Made by the Co-driver Hillel Segal from Layogev Co 18:01:02 06:02:59
43 431 DAGNINO RAUL EDMUNDO JATON RACING TOYOTA - HILUX 4WD JATON RACING 18:07:24 06:09:21
44 355 VANEIKEREN Mike DAKAR TEAM VON EIKEREN TOYOTA - RAV DESERT PROTO 18:16:02 06:17:59
45 365 BERNARD Eric TEAM TRIO RACING BMW - PROTO TRIO 18:18:55 06:20:52
46 415 MOGNIER Gerald TGO TOYOTA - KDJ120 18:18:56 06:20:53
47 379 THEURIOT Jean-philippe REVIVAL AVENTURES BOWLER - WILDCAT 18:21:49 06:23:46
48 422 MIOT BRUNO MD RALLYE SPORT MD RALLY - BUGGY OPTIMUS 18:27:49 06:29:46
49 341 WAUTERS Koen FERYN DAKAR TEAM TOYOTA - LANDCRUISER 18:32:07 06:34:04
50 425 BANACLOCHA BARBERA ROMAN IVAN JATON RACING TOYOTA - HILUX 18:50:17 06:52:14
51 398 BASSO Ronald JCB RACING TOYOTA - KDJ 120 18:51:50 06:53:47
52 371 YACOPINI Alejandro miguel TOYOTA YACOPINI TEAM TOYOTA - SW4 19:12:30 07:14:27
53 462 RIOS QUIROS MAXIMILIANO GABRIEL RIOS RALLY RAID TOYOTA - FJ CRUISER 19:20:21 07:22:18
54 465 COFFARO NUNZIO TEAM AZIMUT VENEZUELA TOYOTA - HILUX 19:43:47 07:45:44
55 358 FAVRE Frédéric AQUITAINE 4X4 TOYOTA - LAND CRUISER 105 HZJ 19:49:42 07:51:39
56 391 HALPERN Sebastian TOYOTA SW4 TOYOTA - SW4 20:03:38 08:05:35
57 367 JONCHERE Miguel TEAM TRIO RACING BOWLER - WILDCAT 20:05:56 08:07:53
58 424 GIRARD Christophe SMG TOYOTA - LAND CRUISER HDJ 100 20:41:37 08:43:34
59 400 RAUD Philippe BISCAUTO TEAM TOYOTA - 20:43:46 08:45:43
60 457 BENSADOUN David RALLY RAID INTERNATIONAL DESERT WARRIOR - DESERT WARRIOR 20:57:01 08:58:58
61 387 LIANG XI CHENGDU RURAL COMMERCIAL BANK TEAM CHINA MITSUBISHI - PAJERO 20:59:31 09:01:28
62 433 LOPEZ PALOMINO JESUS ALTA RUTA 4X4 PERU MITSUBISHI - L200 4X4 21:05:15 09:07:12
63 385 MORIN Eric WILDCAT RAID BOWLER - WILDCAT 200 21:09:22 09:11:19
64 417 ROTTA DANTE ALBERTO MAR DEL PLATA DAKAR TEAM TOYOTA - 2007 21:22:25 09:24:22
65 373 SMULEVICI Etienne TEAM SODICARS RACING PROTO EUROREPAR - SPRINGBOKS 21:28:30 09:30:27
66 405 MOSSI Edoardo DESERT EMOTION RACING TOYOTA - KDJ120 21:44:13 09:46:10
67 351 SPATARO Emiliano LA LEGION ARGENTINA SPEEDAGRO VOLKSWAGEN - AMAROK 21:56:01 09:57:58
68 366 BOUTRON Philippe TEAM CUMMINS FRANCE BUGGY - SMG 21:58:48 10:00:45
69 452 ROBERTI Hernán Javier SANTA FE DAKAR TEAM NISSAN - FRONTIER D40M LE 22:04:08 10:06:05
70 390 GANDARA Omar eliseo MAR DEL PLATA DAKAR TEAM TOYOTA - HILUX 4X4 CABINA DOBLE SR C/AB 3.0 TDI 22:05:11 10:07:08
71 423 GUO Hongzhi CAFE DE COLOMBIA DAKAR TEAM NISSAN - PATROL 22:19:44 10:21:41
72 356 FERRAND DEL BUSTO Fernando TEAM PERU DAKAR AMAROK VOLKSWAGEN - AMAROK 22:25:16 10:27:13
73 327 SCHOTT Stephan X-RAID TEAM BMW - X3 CC 22:39:03 10:41:00
74 336 OLHOLM Geoffrey CAIRNS COCONUT HOLIDAY RESORT DESERT WARRIOR - RABE X1 22:57:40 10:59:37
75 374 ALCARAZ William POLARIS RACING POLARIS - RZR 900 22:59:40 11:01:37
76 434 VIDAURRE CRISTOBAL AUTO GASCO TOYOTA - FJ CRUISER 22:59:56 11:01:53
77 458 VAGNINI LEONARDO RAID 4X4 TV TEAM NISSAN - FRONTIER 23:01:11 11:03:08
78 377 LEYDS Chris PRO DAKAR MC RAE - PRO DAKAR ENDURO 23:19:12 11:21:09
79 329 CHAVIGNY Frederic TEAM DESSOUDE PROTO DESSOUDE - PROTO ATACAMA 23:28:51 11:30:48
80 456 JUAN FERNANDO LOPEZ MENOZZI PERUANOS AL DAKAR VOLKSWAGEN - AMAROK 23:38:34 11:40:31
81 453 CÁCERES SIMONS Juan Carlos PERU RALLY RAID MOTORSPORTS NISSAN - PATROL 23:39:47 11:41:44
82 407 BEAUPRE Piotr NEORAID BMW - X5 CC 24:07:17 12:09:14
83 412 TOTANI Silvio RALLIART OFFROAD TEAM ITALY MITSUBISHI - PAJERO 24:16:53 12:18:50
84 389 CASALE Francisco AUTO GASCO TOYOTA - TUNDRA 24:23:55 12:25:52
85 473 DAGOSTINI Walter Augusto AUTOVIA DAKAR TEAM VOLKSWAGEN - AMAROK 24:32:32 12:34:29
86 437 DIBOS JUAN   TOYOTA - FJ CRUISER 24:33:38 12:35:35
87 347 CORONEL Tim PRO DAKAR MC RAE - Prodakar McRae 4X2 24:41:04 12:43:01
88 435 DUBBELDAM Raymond DAKAR TEAM VON EIKEREN BOWLER - Wildcat 24:47:36 12:49:33
89 353 KOOLEN KEES GOKOBRA BUGGY - KOBRA 001 24:52:59 12:54:56
90 392 REGUNASCHI Francisco claudio EL CHACARERO TOYOTA - LAND CRUISER 200 25:27:26 13:29:23
91 380 PITA Francisco TEAM PRIME STADIUM SMG - SMG 25:37:38 13:39:35
92 444 WINGENS EGBERT DUTSCH DESERT WINGS JEEP - WRANGLER 2.8 CDI 26:20:56 14:22:53
93 447 BARBERY Luis LUIS BARBERY RACING TOYOTA - LAND CRUISER 26:36:04 14:38:01
94 410 DI PALMA MARCOS SF COMPETICION TOYOTA - HILUX 4x4 26:37:08 14:39:05
95 328 MC RAE Alister PRO DAKAR MC RAE - ENDURO MC-4 27:00:28 15:02:25
96 439 THUEIL FREDERIC   TOYOTA - LAND CRUISER HDJ 100 27:12:06 15:14:03
97 467 GRIGOROV Anton TEAM LATVIA OSC - OSCAR O3 27:25:15 15:27:12
98 370 SAUKANS Maris TEAM LATVIA OSCAR - EO 27:38:12 15:40:09
99 396 VACHER Didier TECNOSPORT SPA NISSAN - PATROL 28:11:01 16:12:58
100 440 VAN DER KOLK Peter DAKAR TEAM VON EIKEREN TOYOTA - RAV 4 PROTO II 28:16:47 16:18:44
101 432 SEBESTYÉN SÁNDOR 4X4 OFF-ROAD CLUB SE TOYOTA - LAND CRUISER 28:30:21 16:32:18
102 443 WEBER DIEGO DURO4X4.COM TOYOTA - TACOMA 28:40:52 16:42:49
103 399 GRYSZCZUK Albert RMF CAROLINE TEAM MITSUBISHI - PAJERO 28:41:20 16:43:17
104 419 LAMTZEV DEMETRIO TEAM DESERT PRO RACING S.A TOYOTA - HILUX 29:02:57 17:04:54
105 382 AMOR Eduardo LAS AMERICAS TOYOTA - HILUX 2010 29:15:54 17:17:51
106 471 PESCHIERA Gabriel COCOA RACING TOYOTA - TACOMA 29:31:58 17:33:55
107 375 SKILTON Darren MARK RACING BAJA AUTOMOTIVE - Revolution 6 29:35:16 17:37:13
108 466 HIDALGO SÁEZ CLAUDIO ANDRÉS TEAM CAN-AM / NEXTEL UTV CAN-AM - COMMANDER 29:54:36 17:56:33
109 395 THEUNISSEN HENK GO2DAKAR DODGE - RAM 2500 RACE 30:20:36 18:22:33
110 388 KIM Hernan COLCAR RACING TEAM MERCEDES BENZ 4X4 Todo terreno - ML 320 31:00:24 19:02:21
111 446 GERMANO ANDRES GERMANO RALLY TEAM TOYOTA - HILUX 31:14:04 19:16:01
112 361 VAN DEN GOORBERG Jurgen GOKOBRA - BUGGY KOBRA 001 31:50:45 19:52:42
113 418 NAIVIRT ROBERTO DEL VISO DAKAR TEAM TOYOTA - HILUX 33:27:59 21:29:56
114 409 MARRINI STEFANO RALLIART OFFROAD TEAM ITALY MITSUBISHI - PAJERO 33:42:37 21:44:34
115 455 BOLLERO Rodolfo osvaldo LOS PERALTES RACING TEAM POLARIS - XP 900 35:38:39 23:40:36
116 428 BEREZOVSKIY Denis TECNOSPORT SPA BOWLER - 35:43:05 23:45:02
117 469 TRONCOSO Claudio NEXTEL CAN AM CAN-AM - BUGGY UTV COMMANDER 35:44:23 23:46:20

Partager cet article

Repost0
5 janvier 2012 4 05 /01 /janvier /2012 09:11

miss-france.png

 

Miss France va participer au trophée Andros sur une Skoda électrique (ouais peut être pas dans cette tenue !)andros-.jpg

Partager cet article

Repost0
5 janvier 2012 4 05 /01 /janvier /2012 09:01

dakar-2012-etape-4-victoire-marc-coma_.jpg

Classement général Dakar Moto aprés la quatrième étape

Rang Numéro Pilote/Equipage Equipe Marque - Modèle Temps Retard
1 002 DESPRES Cyril TEAM RED BULL KTM KTM - 450cc Rally 11:50:27  
2 001 COMA Marc KTM MRW RALLY DAKAR EAM KTM - 450 cc 11:58:37 00:08:10
3 003 RODRIGUES Helder TEAM YAMAHA RACING YAMAHA - WRF 450 12:17:15 00:26:48
4 004 LOPEZ Francisco GIOFIL APRILIA APRILIA - 450 RXV TUAREG 12:20:17 00:29:50
5 014 CASTEU David TEAM YAMAHA RACING YAMAHA - 450 WRF Rally 12:21:04 00:30:37
6 007 GONCALVES Paulo HUSQVARNA RALLYE TEAM BY SPEEDBRAIN Husqvarna - Rally 450 RR 12:25:43 00:35:16
7 015 VERHOEVEN Frans SHERCO RALLY RAID - CROCOAVENTURES SHERCO - SR 450 12:28:15 00:37:48
8 005 PEDRERO GARCIA Juan KTM MRW RALLY DAKAR EAM KTM - 450cc Rally 12:28:46 00:38:19
9 010 VILADOMS Jordi BORDONE-FERRARI KTM - Rally Replica 12:34:27 00:44:00
10 020 FARRES GUELL Gerard BORDONE-FERRARI KTM - 450 RALLY REPLICA 12:34:51 00:44:24
11 032 SVITKO Stefan HANT LOGOMOTION SLOVAKIA KTM - 450 RR 12:43:58 00:53:31
12 016 PAIN Olivier TEAM YAMAHA RACING YAMAHA - 450 YZF Rally 12:44:51 00:54:24
13 034 BOTTURI ALESSANDRO BORDONE-FERRARI KTM - 450 RALLY REPLICA 12:45:34 00:55:07
14 027 PIZZOLITO Javier HONDA RACING ARGENTINA HONDA - CRF 450X 12:46:23 00:55:56
15 022 DUCLOS Alain GIOFIL APRILIA APRILIA - RXV 4.5 Rally 13:02:32 01:12:05
16 026 RODRIGUES FILHO Jose helio HUSQVARNA RALLYE TEAM BY SPEEDBRAIN HUQSVARNA - RALLY 450 RR 13:06:24 01:15:57
17 025 GOUET Daniel TAMARUGAL HONDA RACING XC RALLY TEAM HONDA - CRF 450 X 13:06:51 01:16:24
18 031 JAKES Ivan NAD RESS ADVENTURE TEAM BMW - G450RR 13:08:20 01:17:53
19 006 ULLEVALSETER Pal Anders TEAM ULLEVALSETER KTM - 450 R 13:10:45 01:20:18
20 028 ZANOL FELIPE KTM BRASIL KTM - 450 Replica 13:17:55 01:27:28
21 017 CZACHOR Jacek ORLEN TEAM KTM - 450 Replica 13:18:03 01:27:36
22 035 CECI Paolo BORDONE-FERRARI KTM - 450 RR 13:18:29 01:28:02
23 039 GYENES Emanuel VECTRA RACING KTM - 450 RR 13:19:57 01:29:30
24 024 STANOVNIK Miran TEAM SUGAWARA KTM - 450 R 13:20:01 01:29:34
25 113 FAGGOTTER Rodney HUSABERG RALLYE RACING AUSTRALIA HUSABERG - FE450 13:25:13 01:34:46
26 082 GUINDANI Vincent HFP YAMAHA - YZR 450 13:25:29 01:35:02
27 021 AUBERT JOHNNY KTM RALLY FACTORY TEAM KTM - 450 RALLY 13:26:00 01:35:33
28 008 FARIA Ruben TEAM RED BULL KTM KTM - 450 CC RALLY 13:29:30 01:39:03
29 018 KNUIMAN Henk WIM MOTORS DAKAR KTM - 450 REPLICA 13:30:39 01:40:12
30 043 PISANO Michael MP CONCEPT KTM - 450 RR 13:33:30 01:43:03
31 040 SERRADORI Mathieu   KTM - 450 Rally 13:42:03 01:51:36
32 053 RODRIGUEZ Claudio TAMARUGAL HONDA RACING XC RALLY TEAM HONDA - CRF 450 X 13:43:37 01:53:10
33 033 BETHYS Thierry   YAMAHA - 450 YZF Rally 14:03:25 02:12:58
34 089 NASCIMENTO DENISIO PETROBRAS LUBRAX HONDA - CRF 450 14:12:28 02:22:01
35 049 DABROWSKI Marek ORLEN TEAM KTM - 450 RR 14:15:07 02:24:40
36 012 PELLICER Jose Manuel HUSQVARNA RALLYE TEAM BY SPEEDBRAIN HUSQVARNA - Rally 450 RR 14:20:36 02:30:09
37 173 MALO WILSON WILSON MALO KTM DEL ECUADOR KTM - 450 RALLY 2010 14:23:30 02:33:03
38 048 LIEFHEBBER Hans-jos   KTM - 450 RR 14:31:22 02:40:55
39 064 SCHRÖDER DANIEL MEMO TOURS - ALFIE COX TEAM KTM - 450cc 14:32:01 02:41:34
40 057 WILLEMSEN Daniel TEAM HONDA EUROPE HONDA - CRF 450 X 14:36:56 02:46:29
41 041 PROHENS Felipe TAMARUGAL HONDA RACING XC RALLY TEAM HONDA (Transformada) - CRF450X RALLY 14:41:14 02:50:47
42 042 PROHENS Jaime TAMARUGAL HONDA RACING XC RALLY TEAM HONDA - CRF 450X RALLY 14:45:21 02:54:54
43 060 WATT Stanley FRONT ROW GB / CRECENT KTM KTM - 450 RR 14:46:15 02:55:48
44 144 CURTIS Darryl MEMO TOURS - ALFIE COX TEAM KTM - 450 Replica 14:48:02 02:57:35
45 023 BARREDA BORT Joan HUSQVARNA RALLYE TEAM BY SPEEDBRAIN HUSQVARNA - Rally 450 RR 14:51:11 03:00:44
46 148 GOMEZ Mauricio PACO GOMEZ RALLY TEAM YAMAHA - WR 450 14:52:26 03:01:59
47 145 NUTTALL Dean MEMO TOURS - ALFIE COX TEAM KTM - 450 Replica 15:01:33 03:11:06
48 168 GUIRAL DEMIAN AVANT MOTOS HONDA GENUINE OIL HONDA - CRF 450X 15:02:05 03:11:38
49 081 SUESSE NED ADVRIDER/ NEDURO KTM - 450XCW 15:09:18 03:18:51
50 066 LORMAND Etienne ROUSSILL'HOTEL - HFP YAMAHA - 450 WRF 15:11:59 03:21:32
51 183 RODRIGUEZ Pablo HONDA RACING ARGENTINA HONDA - CRF450X 15:17:22 03:26:55
52 051 ARREDONDO Francisco TEAM GUATEMALA KTM - 450 RALLY 15:24:31 03:34:04
53 110 BIRCH Christopher MEMO TOURS - ALFIE COX TEAM KTM - 450 Replica 15:29:05 03:38:38
54 062 SCHWARZ David HUSABERG RALLYE RACING AUSTRALIA HUSABERG - FE450 15:31:02 03:40:35
55 046 BIANCHI PRATA Pedro TEAM BIANCHI PRATA / VODAFONE HUSQUARNA - TE449 RALLY 15:31:22 03:40:55
56 084 CARILLON Patrice   KTM - 450 CC 15:35:08 03:44:41
57 067 BALOOSHI MOHAMMED RED BULL KTM - 450 RR 15:42:36 03:52:09
58 098 BLONDEAU CHRISTOPHE TEAM FRANROC YAMAHA - YZF 450 15:44:10 03:53:43
59 138 LECOQ SEBASTIEN TEAM PERFORMANCE ENDURO YAMAHA - 450 YZFE 15:45:32 03:55:05
60 159 CHITTICK Jamie GHR HONDA HONDA - CRF450X 15:47:52 03:57:25
61 086 MUNK Jes X-RAGE RACING KTM - 450 15:48:12 03:57:45
62 154 GAJDOSECH ROBERTO ANTONIO ATUEL MOTOS YAMAHA - WR 450 15:51:23 04:00:56
63 063 SAGHMEISTER Gabor   KTM - 450 15:54:00 04:03:33
64 181 RIOS FELIPE KTM PERU RALLY TEAM KTM - Rally Replica 15:54:10 04:03:43
65 184 SAKIR SENKALAYCI TURKISH TEAM KTM - 450 RALLY EXC 15:58:11 04:07:44
66 045 SANZ PLA-GILIBERT Eulalia GAS GAS GAS - GAS - EC 450 15:59:33 04:09:06
67 029 BERGLUND Thomas HUSABERG RALLY TEAM SCANDINAVIA HUSABERG - FE 450 16:01:11 04:10:44
68 030 GUASCH Marc GAS GAS GAS - GAS - EC 450 16:02:48 04:12:21
69 077 PICCO Franco FRANCO PICCO RACING YAMAHA - WRF 450 16:02:54 04:12:27
70 059 CIOTTI Filippo FRANCO PICCO RACING RIEJU - MRT 450 16:04:24 04:13:57
71 092 HAMARD Stephane REUNION RALLYE RAID KTM - 450 RR 16:07:01 04:16:34
72 058 PUERTAS HERRERA Miguel HIMOINSA DAKAR TEAM YAMAHA - 450 WR 16:10:29 04:20:02
73 071 BUTUZA Marcel BOANO HONDA - CRE F 450 X 16:10:43 04:20:16
74 055 MERKIT Kemal TURKISH TEAM KTM - 450 RALLY 16:13:47 04:23:20
75 068 BARROT David POWERBIKE YAMAHA IPONE YAMAHA - 450 IZF RALLY 16:14:56 04:24:29
76 087 MEILLAT Christophe C.M PROMO KAWASAKI - KLX 450 R 16:17:54 04:27:27
77 165 MULDER GEERT TEAM HONDA EUROPE HONDA - CFR 450 X 16:19:14 04:28:47
78 114 FESANI ANDREA FRANCO PICCO RACING RIEJU - MOTO MRT450 16:20:45 04:30:18
79 185 SANCHEZ MARCELO TEAM RPM KAWASAKI KAWASAKI - KLX 450 R 16:21:48 04:31:21
80 061 MATTOS Dimas BRASIL MOTO TOUR KTM - 450 RR 16:26:37 04:36:10
81 177 VAN GEEL MARCO TEAM HONDA EUROPE HONDA - CFR 450 X 16:29:00 04:38:33
82 100 VESELY Jan CZECH DAKAR TEAM YAMAHA - WR 450F 16:36:54 04:46:27
83 065 LAZARD Laurent MOTO TEAM BY ELF YAMAHA - WR 450 16:38:34 04:48:07
84 056 MENARD Jean-Christophe HFP YAMAHA - 450 YZF 16:41:58 04:51:31
85 149 CIPKA DUSAN SLOVAKIA TURBOTEAM ZATKO BMW - G450X 16:45:31 04:55:04
86 164 DEMELCHORI DIEGO TEAM RPM KAWASAKI KAWASAKI - 2009 16:47:47 04:57:20
87 122 PALANTE Eric WIM MOTORS RACING DIVISION KTM - 450 RR FREVA 16:50:48 05:00:21
88 075 BUSIN Pablo MOTO TEAM BY ELF YAMAHA - 450 WR 17:00:14 05:09:47
89 072 GOUNON SERGE EMS KTM - 450 RR 17:06:42 05:16:15
90 050 SALVATIERRA Juan Carlos GHR HONDA HONDA - CRF450X 17:09:01 05:18:34
91 116 GEOFFROY Christophe TB RACING HONDA - F 450 XE 17:18:51 05:28:24
92 091 TONETTI NICOLA TEAM BOANO HONDA - CRF 450 X 17:25:35 05:35:08
93 131 THEURIOT Herve REVIVAL AVENTURES YAMAHA - 450 WRF 17:26:24 05:35:57
94 074 KOFMAN Erik   KTM - 450 RR 17:26:49 05:36:22
95 076 PEDERZOLI Claudio ON-OFF RACING TEAM YAMAHA - WR 450 17:36:47 05:46:20
96 107 BODINGER Ronnie HUSABERG FACTORY TEAM HUSABERG - FE 450 17:39:03 05:48:36
97 093 GOMEZ Jorge VEMOTOR CANARIAS Husqvarna - 450cc 17:47:58 05:57:31
98 172 LUCCHESE MANUEL HUSABERG FACTORY TEAM HUSABERG - FE 450 RALLY 17:58:53 06:08:26
99 080 PASCUAL Pablo oscar JINCHENG TEAM JINCHENG - JC450Y 18:11:43 06:21:16
100 178 VAN WOERKUM JAN TEAM HONDA EUROPE HONDA - CFR 450 X 18:19:18 06:28:51
101 174 MARTÍNEZ Paco PACO MARTINEZ KAWASAKI - KX450 18:25:13 06:34:46
102 106 EMBRO JAMES MEMO TOURS - ALFIE COX TEAM KTM - 450 RALLY 18:37:40 06:47:13
103 097 LAGRIVE MATTHIEU TEAM YAMAHA RACING YAMAHA - WR 450 cc Rally 18:42:03 06:51:36
104 151 BEALUSTEGUI Juan Manuel AL LIMITE DAKAR 2012 YAMAHA - WR 450 F 18:42:51 06:52:24
105 102 ALAN Eduardo ELF ARGENTINA Yamaha - WR 450 18:52:38 07:02:11
106 170 KREIDL FERDINAND KLS ADVANCE RALLYE RAID TEAM KTM - 450 Replica 18:53:42 07:03:15
107 096 CID DE LA PAZ Pablo PCP ASISTENCIA / MED BETA - RR 450 19:05:30 07:15:03
108 136 IGARIS GINTAUTAS   YAMAHA - WR450F 19:08:34 07:18:07
109 150 BELAUSTEGUI Luis FREEDOM RALLY RACING KTM - SX 150 19:08:52 07:18:25
110 069 PAYEN Hugo   YAMAHA - 450 WRF 19:11:59 07:21:32
111 108 STEVENSON Iain MEMO TOURS - ALFIE COX TEAM KTM - 450 RALLY 19:19:21 07:28:54
112 095 MAZET Jean-Claude JCM RALLYE RAID KTM - 450 RR 19:24:18 07:33:51
113 128 ANO Julio TEAM NORMAND RAID YAMAHA - WRF 450 19:37:30 07:47:03
114 117 GHITTI Federico RALLY RACING KTM - 450 RALLY 19:38:28 07:48:01
115 176 RAAF Greg MEMO TOURS - ALFIE COX TEAM KTM - 450 Replica 19:39:18 07:48:51
116 120 ILLANES Rodrigo TARAPACA RALLY TEAM Husqvarna - TE 449 20:00:09 08:09:42
117 104 DE BENEDICTIS NETO Vicente   Beta - RR 450 20:06:45 08:16:18
118 090 DIGUIET Gilles   KTM - 450 CC 20:12:58 08:22:31
119 109 BUDWEG ARNDT BRASIL MOTO TOUR KTM - 450 RR 20:14:21 08:23:54
120 158 VELLUTINO Carlo PERUANOS AL DAKAR KTM - 450 EXC 2011 20:27:59 08:37:32
121 112 GUYOMARC?H Yannick SCE PERFORMANCE / ASA POMPIERS DE PARIS YAMAHA - WRF 20:30:02 08:39:35
122 099 CHERPIN Pierre   KTM - 450 RR 20:31:09 08:40:42
123 073 BONY BRUNO EMS KTM - 450 RR 20:44:38 08:54:11
124 094 WEI Guanghui JINCHENG TEAM JINCHENG - JC 450Y 21:01:26 09:10:59
125 124 TARLINGTON Craig WARTHOG RALLYE TEAM KTM - 450 RALLY 21:02:11 09:11:44
126 135 SCOTT-WILLIAMS Neil MEMO TOURS - ALFIE COX TEAM KTM - 450 Replica 21:52:44 10:02:17
127 111 ESPINASSE SYLVAIN SHERCO RALLY RAID - CROCOAVENTURES SHERCO - SR 450 21:54:46 10:04:19
128 129 DEPOORTER Philippe WIM MOTORS DAKAR KTM - 450 22:21:22 10:30:55
129 105 BARRON Jacques PERUANOS AL DAKAR KTM - 450 EXL 22:42:35 10:52:08
130 140 REINIKE MARCO MARCO REINIKE KTM - 450 RALLY REPLICA 22:43:41 10:53:14
131 152 TER BEEK RONALD GHR HONDA HONDA - CFR 450 X 22:53:37 11:03:10
132 085 PENATE MUNOZ Pedro Manuel KH7 VALSEBIKE KTM - 450 23:29:08 11:38:41
133 127 KARATHANASSIS THEOCHARIS   YAMAHA - 450 24:34:27 12:44:00
134 125 ASTORI Gianernesto ABC RALLY ACTION TEAM KTM - 450 RR 24:37:19 12:46:52
135 121 DAVIDSON Mark FREEDOM RALLY RACING KTM - 450 RALLYE REPLICA 25:06:31 13:16:04
136 130 DETANG Dominique SHERCO RALLY RAID - CROCOAVENTURES SHERCO - SR 450 25:58:27 14:08:00
137 147 STANFIELD Michael FREEDOM RALLY RACING KTM - 450 EXC 27:19:21 15:28:54
138 180 PICKERING Jago DESERT ROSE RACING KTM - 450EXC 27:57:17 16:06:50
139 133 SCHNEIDER CHARLES SHERCO RALLY RAID - CROCOAVENTURES SHERCO - SR 450 29:12:48 17:22:21
140 160 HAMEL ERIC   YAMAHA - 450 WRF 30:59:00 19:08:33
141 187 YOUNGER TOBIAS DESERT ROSE RACING KTM - 450EXC 31:06:29 19:16:02
142 161 ORLANDO SALVATORE TEAM AL DESERT YAMAHA - 450WRF JVO 31:47:51 19:57:24
143 142 CAREVIC Andrés INSTITUTO NACIONAL DEL DEPORTE YAMAHA - 450 WR 33:26:34 21:36:07

Partager cet article

Repost0
5 janvier 2012 4 05 /01 /janvier /2012 08:29
mini--jpg
 
Les minis étaient en train de nous rejouer un remake de " braquage à l’italienne "
l'or se barre
 
"
 remake de » l’or se barre "
Giniel-de-Villiers.jpg
Heureusement De Villiers vient intercaler son Toyota entre les minis

Classement général Dakar Auto aprés la quatrième étape

Rang Numéro Pilote/Equipage Equipe Marque - Modèle Temps Retard
1 302 PETERHANSEL Stephane MONSTER ENERGY X-RAID TEAM MINI - ALL 4 RACING 09:43:20  
2 301 DE VILLIERS Giniel IMPERIAL TOYOTA TOYOTA - PICKUP HILUX 09:49:01 00:05:41
3 305 ROMA Joan (Nani) MONSTER ENERGY X-RAID TEAM MINI - ALL4 RACING 09:50:04 00:06:44
4 304 HOLOWCZYC Krzysztof ORLEN X-RAID TEAM MINI - ALL4 RACING 09:51:30 00:08:10
5 303 GORDON Robby SPEED ENERGY RACING HUMMER - H3 09:59:43 00:16:23
6 312 NOVITSKIY Leonid MONSTER ENERGY X-RAID TEAM MINI - ALL4 RACING 10:09:45 00:26:25
7 300 AL-ATTIYAH Nasser saleh TEAM QATAR Hummer - H3 10:14:04 00:30:44
8 307 SOUSA Carlos TEAM GREAT WALL GREAT WALL - HAVAL 10:14:05 00:30:45
9 319 ALVAREZ Lucio ezequiel TOYOTA OVERDRIVE TOYOTA - HILUX PROTOTIPO 10:16:31 00:33:11
10 317 WEVERS Erik Riwald Dakar Team MITSUBISHI - RACING LANCER MRP10 10:20:02 00:36:42
11 315 VAN LOON Erik XDAKAR.COM MITSUBISHI - RACING LANCER 10:25:07 00:41:47
12 313 VOS DUNCAN IMPERIAL TOYOTA TOYOTA - HILUX 10:41:10 00:57:50
13 310 SPINELLI Guilherme MITSUBISHI BRAZIL MITSUBISHI - Racing Lancer 10:44:27 01:01:07
14 321 THOMASSE Pascal MD RALLYE SPORT MD RALLYE - BUGGY OPTIMUS 10:53:48 01:10:28
15 325 GARAFULIC Boris MONSTER ENERGY X-RAID TEAM BMW - X3 CC 11:10:25 01:27:05
16 326 DE AZEVEDO Jean PETROBRAS LUBRAX NISSAN - NAVARRA 11:12:43 01:29:23
17 337 HUZINK GERT RIWALD DAKAR TEAM MITSUBISHI - RACING LANCER MRP10 11:12:55 01:29:35
18 308 TERRANOVA Orlando TOYOTA OVERDRIVE TOYOTA - Pickup Hilux 11:14:36 01:31:16
19 359 CORBETT Mark CENTURY PROPERTY DEVELOPMENTS RACING Century Racing - CR4 11:16:29 01:33:09
20 314 TEN BRINKE Bernhar Riwald Dakar Team MITSUBISHI - RACING LANCER MRP10 11:20:09 01:36:49
21 369 GARCIA FRANCISCO JOSE SIXT UKRAINA SUBARU - FORESTER 11:52:45 02:09:25
22 349 KUZNETSOV Ilja REAUTOKLUBS MITSUBISHI - MPR10 11:53:41 02:10:21
23 323 ERRANDONEA BERNARD SMG SMG - BUGGY 12:16:02 02:32:42
24 320 PATISSIER Isabelle TEAM DESSOUDE DESSOUDE - BUGGY ORYX essence 12:23:26 02:40:06
25 316 CHABOT Ronan TOYS - MOTORS - SMG SMG - BUGGY V8 12:27:31 02:44:11
26 331 MAGNALDI Thierry TEAM DESSOUDE DESSOUDE - BUGGY ORYX Diesel 12:28:35 02:45:15
27 378 MELNIKOV Anton REAUTOKLUBS MITSUBISHI - L200 TRITON 12:36:59 02:53:39
28 339 MITSUHASHI Jun TEAM LAND CRUISER TOYOTA AUTO BODY TOYOTA - VDJ200 12:39:14 02:55:54
29 348 LEON Fernando AUTO GASCO TOYOTA - FJ CRUISER 12:41:31 02:58:11
30 309 LEAL DOS SANTOS Ricardo MONSTER ENERGY X-RAID TEAM MINI - ALL4 RACING 12:45:56 03:02:36
31 383 SISTERNA Lino FAST & SPEED FAST & SPEED - prototipo buggy Evo III 12:47:56 03:04:36
32 343 NESTERCHUK Vadym SIXT UKRAINA MITSUBISHI - L200 12:53:18 03:09:58
33 333 ZHOU Yuande CHENGDU RURAL COMMERCIAL BANK TEAM CHINA MITSUBISHI - L200 12:55:24 03:12:04
34 340 FOJ Javier TOYOTA PRISMA MTA TOYOTA - LAND CRUISER 155 13:00:58 03:17:38
35 335 ZHOU Jihong TEAM DESSOUDE PROTO DESSOUDE - N05 13:08:24 03:25:04
36 322 MIRONENKO Alexander X-RAID TEAM BMW - X3 CC 13:14:56 03:31:36
37 332 OGORODNIKOV LEONID AMAROK OVERDRIVE VOLKSWAGEN - AMAROK OVERDRIVE 13:22:42 03:39:22
38 434 VIDAURRE CRISTOBAL AUTO GASCO TOYOTA - FJ CRUISER 13:28:50 03:45:30
39 346 ALHERAIZ Abdulla TEAM LARDEAU COMPETITION TOYOTA - LAND CRUISER 13:42:18 03:58:58
40 372 MALYSZ ADAM RMF CAROLINE TEAM MITSUBISHI - PAJERO 13:50:19 04:06:59
41 385 MORIN Eric WILDCAT RAID BOWLER - WILDCAT 200 13:54:12 04:10:52
42 357 SILVA JUAN MANUEL LA LEGION ARGENTINA SPEEDAGRO VOLKSWAGEN - AMAROK 14:02:28 04:19:08
43 344 LATRACH Jorge AUTO GASCO TOYOTA - LAND CRUISER FJ 14:07:21 04:24:01
44 431 DAGNINO RAUL EDMUNDO JATON RACING TOYOTA - HILUX 4WD JATON RACING 14:18:39 04:35:19
45 334 SZALAY Balazs OPEL DAKAR TEAM OPEL - ANTARA RR 14:19:25 04:36:05
46 422 MIOT BRUNO MD RALLYE SPORT MD RALLY - BUGGY OPTIMUS 14:30:00 04:46:40
47 415 MOGNIER Gerald TGO TOYOTA - KDJ120 14:32:29 04:49:09
48 468 BULACIA Marco TOYOTA TEAM BOLIVIA TOYOTA - LAND CRUISER 200 14:34:57 04:51:37
49 376 HEYMANN Raz   BMW - Self construction. Made by the Co-driver Hillel Segal from Layogev Co 14:42:17 04:58:57
50 329 CHAVIGNY Frederic TEAM DESSOUDE PROTO DESSOUDE - PROTO ATACAMA 14:46:00 05:02:40
51 355 VANEIKEREN Mike DAKAR TEAM VON EIKEREN TOYOTA - RAV DESERT PROTO 14:47:58 05:04:38
52 365 BERNARD Eric TEAM TRIO RACING BMW - PROTO TRIO 14:49:19 05:05:59
53 379 THEURIOT Jean-philippe REVIVAL AVENTURES BOWLER - WILDCAT 14:50:46 05:07:26
54 341 WAUTERS Koen FERYN DAKAR TEAM TOYOTA - LANDCRUISER 14:59:41 05:16:21
55 457 BENSADOUN David RALLY RAID INTERNATIONAL DESERT WARRIOR - DESERT WARRIOR 15:01:25 05:18:05
56 398 BASSO Ronald JCB RACING TOYOTA - KDJ 120 15:02:21 05:19:01
57 389 CASALE Francisco AUTO GASCO TOYOTA - TUNDRA 15:06:20 05:23:00
58 345 ZHOU Yong TEAM GREAT WALL GREAT WALL - HAVAL SUV 15:10:55 05:27:35
59 462 RIOS QUIROS MAXIMILIANO GABRIEL RIOS RALLY RAID TOYOTA - FJ CRUISER 15:13:26 05:30:06
60 425 BANACLOCHA BARBERA ROMAN IVAN JATON RACING TOYOTA - HILUX 15:19:26 05:36:06
61 371 YACOPINI Alejandro miguel TOYOTA YACOPINI TEAM TOYOTA - SW4 15:19:59 05:36:39
62 465 COFFARO NUNZIO TEAM AZIMUT VENEZUELA TOYOTA - HILUX 15:25:33 05:42:13
63 374 ALCARAZ William POLARIS RACING POLARIS - RZR 900 15:42:11 05:58:51
64 358 FAVRE Frédéric AQUITAINE 4X4 TOYOTA - LAND CRUISER 105 HZJ 15:51:19 06:07:59
65 400 RAUD Philippe BISCAUTO TEAM TOYOTA - 15:59:52 06:16:32
66 342 TERADA Masahiro TEAM LAND CRUISER TOYOTA AUTO BODY TOYOTA - VDJ200 16:06:57 06:23:37
67 391 HALPERN Sebastian TOYOTA SW4 TOYOTA - SW4 16:13:17 06:29:57
68 411 MANNS Stefanie PRO DAKAR MC RAE - PRO DAKAR ENDURO 16:19:37 06:36:17
69 366 BOUTRON Philippe TEAM CUMMINS FRANCE BUGGY - SMG 16:31:11 06:47:51
70 424 GIRARD Christophe SMG TOYOTA - LAND CRUISER HDJ 100 16:39:53 06:56:33
71 433 LOPEZ PALOMINO JESUS ALTA RUTA 4X4 PERU MITSUBISHI - L200 4X4 16:43:14 06:59:54
72 417 ROTTA DANTE ALBERTO MAR DEL PLATA DAKAR TEAM TOYOTA - 2007 16:44:03 07:00:43
73 387 LIANG XI CHENGDU RURAL COMMERCIAL BANK TEAM CHINA MITSUBISHI - PAJERO 16:44:14 07:00:54
74 367 JONCHERE Miguel TEAM TRIO RACING BOWLER - WILDCAT 16:46:48 07:03:28
75 410 DI PALMA MARCOS SF COMPETICION TOYOTA - HILUX 4x4 16:51:20 07:08:00
76 368 FONTANA Norberto LA LEGION ARGENTINA SPEEDAGRO VOLKSWAGEN - AMAROK 16:52:15 07:08:55
77 351 SPATARO Emiliano LA LEGION ARGENTINA SPEEDAGRO VOLKSWAGEN - AMAROK 16:59:32 07:16:12
78 473 DAGOSTINI Walter Augusto AUTOVIA DAKAR TEAM VOLKSWAGEN - AMAROK 17:20:05 07:36:45
79 458 VAGNINI LEONARDO RAID 4X4 TV TEAM NISSAN - FRONTIER 17:21:57 07:38:37
80 435 DUBBELDAM Raymond DAKAR TEAM VON EIKEREN BOWLER - Wildcat 17:27:15 07:43:55
81 452 ROBERTI Hernán Javier SANTA FE DAKAR TEAM NISSAN - FRONTIER D40M LE 17:35:21 07:52:01
82 405 MOSSI Edoardo DESERT EMOTION RACING TOYOTA - KDJ120 17:40:06 07:56:46
83 390 GANDARA Omar eliseo MAR DEL PLATA DAKAR TEAM TOYOTA - HILUX 4X4 CABINA DOBLE SR C/AB 3.0 TDI 17:56:52 08:13:32
84 392 REGUNASCHI Francisco claudio EL CHACARERO TOYOTA - LAND CRUISER 200 17:59:16 08:15:56
85 356 FERRAND DEL BUSTO Fernando TEAM PERU DAKAR AMAROK VOLKSWAGEN - AMAROK 17:59:55 08:16:35
86 373 SMULEVICI Etienne TEAM SODICARS RACING PROTO EUROREPAR - SPRINGBOKS 18:11:26 08:28:06
87 437 DIBOS JUAN   TOYOTA - FJ CRUISER 18:33:15 08:49:55
88 423 GUO Hongzhi CAFE DE COLOMBIA DAKAR TEAM NISSAN - PATROL 18:40:46 08:57:26
89 380 PITA Francisco TEAM PRIME STADIUM SMG - SMG 18:40:54 08:57:34
90 456 JUAN FERNANDO LOPEZ MENOZZI PERUANOS AL DAKAR VOLKSWAGEN - AMAROK 18:44:25 09:01:05
91 412 TOTANI Silvio RALLIART OFFROAD TEAM ITALY MITSUBISHI - PAJERO 18:52:08 09:08:48
92 471 PESCHIERA Gabriel COCOA RACING TOYOTA - TACOMA 19:04:25 09:21:05
93 439 THUEIL FREDERIC   TOYOTA - LAND CRUISER HDJ 100 19:11:31 09:28:11
94 453 CÁCERES SIMONS Juan Carlos PERU RALLY RAID MOTORSPORTS NISSAN - PATROL 19:17:52 09:34:32
95 377 LEYDS Chris PRO DAKAR MC RAE - PRO DAKAR ENDURO 19:24:16 09:40:56
96 419 LAMTZEV DEMETRIO TEAM DESERT PRO RACING S.A TOYOTA - HILUX 19:39:42 09:56:22
97 447 BARBERY Luis LUIS BARBERY RACING TOYOTA - LAND CRUISER 19:42:19 09:58:59
98 327 SCHOTT Stephan X-RAID TEAM BMW - X3 CC 19:50:32 10:07:12
99 382 AMOR Eduardo LAS AMERICAS TOYOTA - HILUX 2010 19:51:20 10:08:00
100 407 BEAUPRE Piotr NEORAID BMW - X5 CC 20:39:35 10:56:15
101 347 CORONEL Tim PRO DAKAR MC RAE - Prodakar McRae 4X2 20:57:15 11:13:55
102 444 WINGENS EGBERT DUTSCH DESERT WINGS JEEP - WRANGLER 2.8 CDI 21:06:26 11:23:06
103 353 KOOLEN KEES GOKOBRA BUGGY - KOBRA 001 21:20:35 11:37:15
104 432 SEBESTYÉN SÁNDOR 4X4 OFF-ROAD CLUB SE TOYOTA - LAND CRUISER 21:56:08 12:12:48
105 375 SKILTON Darren MARK RACING BAJA AUTOMOTIVE - Revolution 6 22:06:54 12:23:34
106 388 KIM Hernan COLCAR RACING TEAM MERCEDES BENZ 4X4 Todo terreno - ML 320 22:09:44 12:26:24
107 440 VAN DER KOLK Peter DAKAR TEAM VON EIKEREN TOYOTA - RAV 4 PROTO II 22:21:41 12:38:21
108 446 GERMANO ANDRES GERMANO RALLY TEAM TOYOTA - HILUX 22:29:22 12:46:02
109 467 GRIGOROV Anton TEAM LATVIA OSC - OSCAR O3 23:20:05 13:36:45
110 370 SAUKANS Maris TEAM LATVIA OSCAR - EO 23:32:54 13:49:34
111 328 MC RAE Alister PRO DAKAR MC RAE - ENDURO MC-4 23:45:53 14:02:33
112 399 GRYSZCZUK Albert RMF CAROLINE TEAM MITSUBISHI - PAJERO 24:19:05 14:35:45
113 443 WEBER DIEGO DURO4X4.COM TOYOTA - TACOMA 24:37:35 14:54:15
114 409 MARRINI STEFANO RALLIART OFFROAD TEAM ITALY MITSUBISHI - PAJERO 24:59:14 15:15:54
115 418 NAIVIRT ROBERTO DEL VISO DAKAR TEAM TOYOTA - HILUX 25:25:08 15:41:48
116 428 BEREZOVSKIY Denis TECNOSPORT SPA BOWLER - 25:32:13 15:48:53
117 361 VAN DEN GOORBERG Jurgen GOKOBRA - BUGGY KOBRA 001 25:37:11 15:53:51
118 469 TRONCOSO Claudio NEXTEL CAN AM CAN-AM - BUGGY UTV COMMANDER 25:59:44 16:16:24
119 464 HANSE Jan FLEVO DAKAR TEAM MITSUBISHI - PAJERO EVOLUTION 32:27:29 22:44:09
 

Partager cet article

Repost0
4 janvier 2012 3 04 /01 /janvier /2012 08:58

ARDAVICHUS-Artur.jpg

Classement général Dakar Camion apres la troisième étape

Rang Numéro Pilote/Equipage Equipe Marque - Modèle Temps Retard
1 533 ARDAVICHUS Artur TEAM ASTANA KAMAZ - 4623 06:47:33  
2 502 DE ROOY Gerard PETRONAS TEAM DE ROOY IVECO IVECO - Powerstar (Strator - torpedo) 06:48:01 00:00:28
3 511 BIASION Miki PETRONAS TEAM DE ROOY IVECO IVECO - TRAKKER EVOLUTION II 06:49:24 00:01:51
4 505 STACEY Hans PETRONAS TEAM DE ROOY IVECO IVECO - Trakker Evolution II 06:49:30 00:01:57
5 501 LOPRAIS Ales INSTAFOREX LOPRAIS TEAM TATRA - 815-2 ZO R45 12.400 4x4.1 06:50:16 00:02:43
6 500 NIKOLAEV Eduard KAMAZ - MASTER KAMAZ - 4326KV 07:00:07 00:12:34
7 504 MARDEEV Ayrat KAMAZ - MASTER KAMAZ - 4326KV 07:00:55 00:13:22
8 507 VAN VLIET MARCEL VEKA MAN WITH A MISSION MAN - TGS 480 07:01:01 00:13:28
9 509 KARGINOV Andrey KAMAZ - MASTER KAMAZ - 4623 07:02:43 00:15:10
10 503 ECHTER Franz VEKA MAN WITH A MISSION MAN - TGS 480 07:10:35 00:23:02
11 518 ADUA Joseph PETRONAS TEAM DE ROOY IVECO IVECO - TRAKKER 07:25:10 00:37:37
12 515 VILA Pep PETRONAS TEAM DE ROOY IVECO IVECO - Trakker Evolution II 07:26:24 00:38:51
13 534 VERSLUIS Pieter VEKA MAN WITH A MISSION MAN - TGS 07:26:52 00:39:19
14 547 KOLOMY Martin CZECH DAKAR TEAM TATRA - T 815 07:26:55 00:39:22
15 523 MARDEEV Ilgizar KAMAZ - MASTER KAMAZ - 4623 07:26:56 00:39:23
16 513 DE AZEVEDO André PETROBRAS LUBRAX TATRA - T 815 07:42:43 00:55:10
17 555 DE BAAR Pascal VEKA MAN WITH A MISSION MAN - TGS 07:46:44 00:59:11
18 508 SUGAWARA Teruhito HINO TEAM SUGAWARA HINO - 500 SERIES 08:09:51 01:22:18
19 512 BEKX Hans HANS BEKX TEAMSPORT DAF - CF 75 08:34:37 01:47:04
20 510 VAN DEN BRINK Martin MAMMOET RALLYSPORT GINAF - X2222 08:48:59 02:01:26
21 530 VALTR Jaroslav KM RACING TEAM LIAZ - 111.154 09:05:11 02:17:38
22 525 SMINK Jos GINAF RALLY SERVICE GINAF - X2222 09:12:12 02:24:39
23 539 TEN HARKEL Bob TEAM AUTOTRACK.NL DAF - 09:17:45 02:30:12
24 551 CABALA Josef KM RACING TEAM LIAZ - 111.154 09:23:10 02:35:37
25 522 JUVANTENY Jordi EPSILON MAN - TGA 26480 09:24:00 02:36:27
26 546 DARAZSI Zsolt OPEL DAKAR TEAM MAN - 18.285 LAK 09:34:54 02:47:21
27 526 ELFRINK Johan FINSTRAL-RALLY MERCEDES - AXOR 09:36:40 02:49:07
28 521 SUGAWARA Yoshimasa HINO TEAM SUGAWARA HINO - 500 SERIES 09:50:23 03:02:50
29 532 DEL ZOTTO GERARDO EPSILON TEAM MERCEDES - 18.44 AK 4X4 10:28:25 03:40:52
30 528 LAMMERS Jan GINAF RALLY SERVICE GINAF - X2222 10:32:00 03:44:27
31 535 VAN LANKVELD Frans AFRAJA DAF - XF 75 10:43:55 03:56:22
32 571 STAM Teun FINSTRAL-RALLY MERCEDES - AXOR 10:44:52 03:57:19
33 543 OFFRINGA Kornelis DAKAR TEAM VON EIKEREN MERCEDES - UNIMOG 10:55:22 04:07:49
34 537 HUZINK RICHARD Riwald Dakar Team GINAF - 4X4 10:59:50 04:12:17
35 527 VRATNÝ TOMÁ? BONVER DAKAR TEAM TATRA - T 815 - 2 11:06:11 04:18:38
36 529 BARAN Grzegorz CHENGDU RURAL COMMERCIAL BANK TEAM CHINA MAN - TGA480 11:27:51 04:40:18
37 553 HOL Martien MAMMOET RALLYSPORT GINAF - X2222 11:32:25 04:44:52
38 560 DARROUX Roger SHERPA SERVICES RENAULT TRUCKS - KERAX 420DCI 11:38:59 04:51:26
39 558 SZUSTKOWSKI Robert R-SIX TEAM MERCEDES - UNIMOG U400 11:54:07 05:06:34
40 520 VAN DEN BOSCH Peter XDAKAR.COM DAF - CF 85 12:20:19 05:32:46
41 556 PIANA Marco SIXT UKRAINA MERCEDES - UNIMOG 500 12:23:20 05:35:47
42 545 VASILEVSKI Aleksandr MAZ-SPORTAUTO MAZ - 5309RR 12:38:01 05:50:28
43 568 SCHOONES ADRIANUS SCHOONESDAKAR.NL DAF - TE75PC 12:48:12 06:00:39
44 548 BESNARD Sylvain TOYOTA OVERDRIVE MERCEDES - ACTROS 6X6 13:27:51 06:40:18
45 564 VERZELETTI Giulio TEAM PANDAKAR MERCEDES - UNIMOG 400 13:29:18 06:41:45
46 575 PREMAT PHILIPPE AMAROK OVERDRIVE MERCEDES - ACTROS 6X6 13:34:01 06:46:28
47 574 MAURI JEAN-CHARLES TEAM LATVIA DAF - FAV 75CF 13:48:00 07:00:27
48 557 ZAPLETAL Miroslav CZECH DAKAR TEAM TATRA - T 815 13:56:22 07:08:49
49 573 GINESTA Georges Gabriel SHERPA SERVICES RENAULT - Kerax 420 DCI 14:02:27 07:14:54
50 552 LEEUW MARC LEEUW RALLYSPORT DAF - 75 CF 14:08:48 07:21:15
51 514 VAN DEN HEUVEL Jasper XDAKAR.COM DAF - CF 85 14:59:38 08:12:05
52 559 CALZI Stefano EPSILON TEAM MAN - TGA 26.480 6X6 15:00:00 08:12:27
53 567 BOUCOU Michel SHERPA SERVICES RENAULT TRUCKS - KERAX 420 DCI 6x6 15:00:00 08:12:27
54 506 VAN GINKEL Wuf GINAF RALLY SERVICE GINAF - X 2222 SP 15:32:29 08:44:56
55 536 BAUERLE Klaus X-RAID TEAM MAN - 15:53:33 09:06:00
56 531 BEZEMER Cornelis TEAM BEZEMER MAN - TGA 18.480 16:04:00 09:16:27
57 550 LACOURT Serge TEAM DESSOUDE MERCEDES - 6X6 16:08:48 09:21:15
58 542 RICKLER DEL MARE Renato RALLIART OFFROAD TEAM ITALY IVECO - EURO CARGO 16:11:39 09:24:06
59 540 VERHEYDEN Paul PRO DAKAR DAF - 16:29:21 09:41:48
60 569 COCKBURN John RALLY RAID INTERNATIONAL MAN - RALLYRAID UK SPECIAL 16:50:09 10:02:36
61 561 SAUMET Michel TEAM SSP MERCEDES - 1935 AK 16:56:51 10:09:18
62 541 PALISHCHUK ALIAKSANDR MAZ-SPORTAUTO MAZ - 5309RR 16:59:35 10:12:02
63 538 TIMMERMANS Eimbert XDAKAR.COM DAF - CF 85 17:21:32 10:33:59
64 562 CABINI Antonio TEAM PANDAKAR MERCEDES - UNIMOG 400 17:24:19 10:36:46
65 554 GIMBRE Raphael CAFE DE COLOMBIA DAKAR TEAM MAN - TG 480 18:23:55 11:36:22
66 544 WALLENWEIN Thomas X-RAID TEAM MAN - 19:36:06 12:48:33
67 563 PAVLOV Dmitry REAUTOKLUBS MERCEDES - 1935 54:00:00 47:12:27
68 576 AGUIRREGAVIRIA Alex JATON RACING MERCEDES - 55:44:52 48:57:19

Partager cet article

Repost0
4 janvier 2012 3 04 /01 /janvier /2012 08:54

cyril-despres-dakar-2012.jpg

Classement général Moto dakar aprés la troisième étape

Rang Numéro Pilote/Equipage Equipe Marque - Modèle Temps Retard
1 002 DESPRES Cyril TEAM RED BULL KTM KTM - 450cc Rally 07:31:42  
2 001 COMA Marc KTM MRW RALLY DAKAR EAM KTM - 450 cc 07:41:54 00:10:12
3 014 CASTEU David TEAM YAMAHA RACING YAMAHA - 450 WRF Rally 07:48:58 00:17:16
4 004 LOPEZ Francisco GIOFIL APRILIA APRILIA - 450 RXV TUAREG 07:49:19 00:17:37
5 003 RODRIGUES Helder TEAM YAMAHA RACING YAMAHA - WRF 450 07:51:31 00:19:49
6 007 GONCALVES Paulo HUSQVARNA RALLYE TEAM BY SPEEDBRAIN Husqvarna - Rally 450 RR 07:57:42 00:26:00
7 027 PIZZOLITO Javier HONDA RACING ARGENTINA HONDA - CRF 450X 07:59:03 00:27:21
8 010 VILADOMS Jordi BORDONE-FERRARI KTM - Rally Replica 08:00:08 00:28:26
9 005 PEDRERO GARCIA Juan KTM MRW RALLY DAKAR EAM KTM - 450cc Rally 08:00:43 00:29:01
10 020 FARRES GUELL Gerard BORDONE-FERRARI KTM - 450 RALLY REPLICA 08:02:42 00:31:00
11 015 VERHOEVEN Frans SHERCO RALLY RAID - CROCOAVENTURES SHERCO - SR 450 08:03:06 00:31:24
12 034 BOTTURI ALESSANDRO BORDONE-FERRARI KTM - 450 RALLY REPLICA 08:06:40 00:34:58
13 016 PAIN Olivier TEAM YAMAHA RACING YAMAHA - 450 YZF Rally 08:12:18 00:40:36
14 032 SVITKO Stefan HANT LOGOMOTION SLOVAKIA KTM - 450 RR 08:13:33 00:41:51
15 025 GOUET Daniel TAMARUGAL HONDA RACING XC RALLY TEAM HONDA - CRF 450 X 08:18:18 00:46:36
16 021 AUBERT JOHNNY KTM RALLY FACTORY TEAM KTM - 450 RALLY 08:18:58 00:47:16
17 026 RODRIGUES FILHO Jose helio HUSQVARNA RALLYE TEAM BY SPEEDBRAIN HUQSVARNA - RALLY 450 RR 08:19:12 00:47:30
18 017 CZACHOR Jacek ORLEN TEAM KTM - 450 Replica 08:20:14 00:48:32
19 024 STANOVNIK Miran TEAM SUGAWARA KTM - 450 R 08:26:18 00:54:36
20 018 KNUIMAN Henk WIM MOTORS DAKAR KTM - 450 REPLICA 08:27:48 00:56:06
21 031 JAKES Ivan NAD RESS ADVENTURE TEAM BMW - G450RR 08:29:30 00:57:48
22 035 CECI Paolo BORDONE-FERRARI KTM - 450 RR 08:30:05 00:58:23
23 039 GYENES Emanuel VECTRA RACING KTM - 450 RR 08:30:47 00:59:05
24 022 DUCLOS Alain GIOFIL APRILIA APRILIA - RXV 4.5 Rally 08:32:29 01:00:47
25 082 GUINDANI Vincent HFP YAMAHA - YZR 450 08:33:09 01:01:27
26 113 FAGGOTTER Rodney HUSABERG RALLYE RACING AUSTRALIA HUSABERG - FE450 08:33:46 01:02:04
27 040 SERRADORI Mathieu   KTM - 450 Rally 08:33:47 01:02:05
28 043 PISANO Michael MP CONCEPT KTM - 450 RR 08:35:40 01:03:58
29 006 ULLEVALSETER Pal Anders TEAM ULLEVALSETER KTM - 450 R 08:38:00 01:06:18
30 012 PELLICER Jose Manuel HUSQVARNA RALLYE TEAM BY SPEEDBRAIN HUSQVARNA - Rally 450 RR 08:38:36 01:06:54
31 028 ZANOL FELIPE KTM BRASIL KTM - 450 Replica 08:45:22 01:13:40
32 008 FARIA Ruben TEAM RED BULL KTM KTM - 450 CC RALLY 08:46:32 01:14:50
33 110 BIRCH Christopher MEMO TOURS - ALFIE COX TEAM KTM - 450 Replica 08:49:27 01:17:45
34 053 RODRIGUEZ Claudio TAMARUGAL HONDA RACING XC RALLY TEAM HONDA - CRF 450 X 08:55:14 01:23:32
35 023 BARREDA BORT Joan HUSQVARNA RALLYE TEAM BY SPEEDBRAIN HUSQVARNA - Rally 450 RR 08:58:30 01:26:48
36 049 DABROWSKI Marek ORLEN TEAM KTM - 450 RR 08:59:46 01:28:04
37 033 BETHYS Thierry   YAMAHA - 450 YZF Rally 09:02:07 01:30:25
38 048 LIEFHEBBER Hans-jos   KTM - 450 RR 09:05:09 01:33:27
39 057 WILLEMSEN Daniel TEAM HONDA EUROPE HONDA - CRF 450 X 09:11:09 01:39:27
40 185 SANCHEZ MARCELO TEAM RPM KAWASAKI KAWASAKI - KLX 450 R 09:12:14 01:40:32
41 042 PROHENS Jaime TAMARUGAL HONDA RACING XC RALLY TEAM HONDA - CRF 450X RALLY 09:17:34 01:45:52
42 089 NASCIMENTO DENISIO PETROBRAS LUBRAX HONDA - CRF 450 09:17:47 01:46:05
43 148 GOMEZ Mauricio PACO GOMEZ RALLY TEAM YAMAHA - WR 450 09:19:43 01:48:01
44 173 MALO WILSON WILSON MALO KTM DEL ECUADOR KTM - 450 RALLY 2010 09:20:31 01:48:49
45 041 PROHENS Felipe TAMARUGAL HONDA RACING XC RALLY TEAM HONDA (Transformada) - CRF450X RALLY 09:20:59 01:49:17
46 060 WATT Stanley FRONT ROW GB / CRECENT KTM KTM - 450 RR 09:21:07 01:49:25
47 168 GUIRAL DEMIAN AVANT MOTOS HONDA GENUINE OIL HONDA - CRF 450X 09:32:44 02:01:02
48 081 SUESSE NED ADVRIDER/ NEDURO KTM - 450XCW 09:33:44 02:02:02
49 144 CURTIS Darryl MEMO TOURS - ALFIE COX TEAM KTM - 450 Replica 09:35:08 02:03:26
50 051 ARREDONDO Francisco TEAM GUATEMALA KTM - 450 RALLY 09:35:40 02:03:58
51 183 RODRIGUEZ Pablo HONDA RACING ARGENTINA HONDA - CRF450X 09:35:51 02:04:09
52 046 BIANCHI PRATA Pedro TEAM BIANCHI PRATA / VODAFONE HUSQUARNA - TE449 RALLY 09:37:16 02:05:34
53 064 SCHRÖDER DANIEL MEMO TOURS - ALFIE COX TEAM KTM - 450cc 09:38:05 02:06:23
54 164 DEMELCHORI DIEGO TEAM RPM KAWASAKI KAWASAKI - 2009 09:42:41 02:10:59
55 079 BOULANGER EDOUARD DAKAR CHALLENGE APRILIA - 450 RXV bicylindre 09:44:04 02:12:22
56 084 CARILLON Patrice   KTM - 450 CC 09:44:41 02:12:59
57 045 SANZ PLA-GILIBERT Eulalia GAS GAS GAS - GAS - EC 450 09:48:17 02:16:35
58 145 NUTTALL Dean MEMO TOURS - ALFIE COX TEAM KTM - 450 Replica 09:49:20 02:17:38
59 030 GUASCH Marc GAS GAS GAS - GAS - EC 450 09:50:23 02:18:41
60 169 HEINRICH DEL VALLE EDUARDO X-RAID TEAM KTM - 450 RALLY FACTORY 09:53:22 02:21:40
61 066 LORMAND Etienne ROUSSILL'HOTEL - HFP YAMAHA - 450 WRF 09:53:51 02:22:09
62 062 SCHWARZ David HUSABERG RALLYE RACING AUSTRALIA HUSABERG - FE450 09:57:13 02:25:31
63 138 LECOQ SEBASTIEN TEAM PERFORMANCE ENDURO YAMAHA - 450 YZFE 10:01:42 02:30:00
64 055 MERKIT Kemal TURKISH TEAM KTM - 450 RALLY 10:03:56 02:32:14
65 059 CIOTTI Filippo FRANCO PICCO RACING RIEJU - MRT 450 10:04:06 02:32:24
66 154 GAJDOSECH ROBERTO ANTONIO ATUEL MOTOS YAMAHA - WR 450 10:04:12 02:32:30
67 086 MUNK Jes X-RAGE RACING KTM - 450 10:06:25 02:34:43
68 077 PICCO Franco FRANCO PICCO RACING YAMAHA - WRF 450 10:08:15 02:36:33
69 098 BLONDEAU CHRISTOPHE TEAM FRANROC YAMAHA - YZF 450 10:08:36 02:36:54
70 184 SAKIR SENKALAYCI TURKISH TEAM KTM - 450 RALLY EXC 10:14:23 02:42:41
71 056 MENARD Jean-Christophe HFP YAMAHA - 450 YZF 10:14:36 02:42:54
72 063 SAGHMEISTER Gabor   KTM - 450 10:15:38 02:43:56
73 165 MULDER GEERT TEAM HONDA EUROPE HONDA - CFR 450 X 10:16:27 02:44:45
74 092 HAMARD Stephane REUNION RALLYE RAID KTM - 450 RR 10:17:11 02:45:29
75 114 FESANI ANDREA FRANCO PICCO RACING RIEJU - MOTO MRT450 10:18:27 02:46:45
76 181 RIOS FELIPE KTM PERU RALLY TEAM KTM - Rally Replica 10:19:01 02:47:19
77 061 MATTOS Dimas BRASIL MOTO TOUR KTM - 450 RR 10:20:49 02:49:07
78 058 PUERTAS HERRERA Miguel HIMOINSA DAKAR TEAM YAMAHA - 450 WR 10:24:32 02:52:50
79 071 BUTUZA Marcel BOANO HONDA - CRE F 450 X 10:24:37 02:52:55
80 087 MEILLAT Christophe C.M PROMO KAWASAKI - KLX 450 R 10:25:52 02:54:10
81 159 CHITTICK Jamie GHR HONDA HONDA - CRF450X 10:26:01 02:54:19
82 067 BALOOSHI MOHAMMED RED BULL KTM - 450 RR 10:26:26 02:54:44
83 149 CIPKA DUSAN SLOVAKIA TURBOTEAM ZATKO BMW - G450X 10:33:15 03:01:33
84 100 VESELY Jan CZECH DAKAR TEAM YAMAHA - WR 450F 10:34:11 03:02:29
85 068 BARROT David POWERBIKE YAMAHA IPONE YAMAHA - 450 IZF RALLY 10:38:16 03:06:34
86 122 PALANTE Eric WIM MOTORS RACING DIVISION KTM - 450 RR FREVA 10:39:13 03:07:31
87 080 PASCUAL Pablo oscar JINCHENG TEAM JINCHENG - JC450Y 10:41:49 03:10:07
88 177 VAN GEEL MARCO TEAM HONDA EUROPE HONDA - CFR 450 X 10:42:06 03:10:24
89 131 THEURIOT Herve REVIVAL AVENTURES YAMAHA - 450 WRF 10:42:14 03:10:32
90 065 LAZARD Laurent MOTO TEAM BY ELF YAMAHA - WR 450 10:45:39 03:13:57
91 072 GOUNON SERGE EMS KTM - 450 RR 10:54:51 03:23:09
92 074 KOFMAN Erik   KTM - 450 RR 10:56:19 03:24:37
93 029 BERGLUND Thomas HUSABERG RALLY TEAM SCANDINAVIA HUSABERG - FE 450 10:57:31 03:25:49
94 075 BUSIN Pablo MOTO TEAM BY ELF YAMAHA - 450 WR 10:57:49 03:26:07
95 116 GEOFFROY Christophe TB RACING HONDA - F 450 XE 11:01:03 03:29:21
96 091 TONETTI NICOLA TEAM BOANO HONDA - CRF 450 X 11:04:14 03:32:32
97 076 PEDERZOLI Claudio ON-OFF RACING TEAM YAMAHA - WR 450 11:06:31 03:34:49
98 107 BODINGER Ronnie HUSABERG FACTORY TEAM HUSABERG - FE 450 11:16:50 03:45:08
99 174 MARTÍNEZ Paco PACO MARTINEZ KAWASAKI - KX450 11:19:58 03:48:16
100 136 IGARIS GINTAUTAS   YAMAHA - WR450F 11:24:29 03:52:47
101 178 VAN WOERKUM JAN TEAM HONDA EUROPE HONDA - CFR 450 X 11:27:06 03:55:24
102 093 GOMEZ Jorge VEMOTOR CANARIAS Husqvarna - 450cc 11:35:03 04:03:21
103 151 BEALUSTEGUI Juan Manuel AL LIMITE DAKAR 2012 YAMAHA - WR 450 F 12:01:11 04:29:29
104 170 KREIDL FERDINAND KLS ADVANCE RALLYE RAID TEAM KTM - 450 Replica 12:03:20 04:31:38
105 106 EMBRO JAMES MEMO TOURS - ALFIE COX TEAM KTM - 450 RALLY 12:09:26 04:37:44
106 150 BELAUSTEGUI Luis FREEDOM RALLY RACING KTM - SX 150 12:10:40 04:38:58
107 102 ALAN Eduardo ELF ARGENTINA Yamaha - WR 450 12:12:41 04:40:59
108 126 MUTELET Olivier AL DESERT YAMAHA - 450 WRF 12:13:57 04:42:15
109 104 DE BENEDICTIS NETO Vicente   Beta - RR 450 12:14:06 04:42:24
110 117 GHITTI Federico RALLY RACING KTM - 450 RALLY 12:15:38 04:43:56
111 157 CERDERA SERGIO TEAM RPM KAWASAKI KAWASAKI - KLX 450 12:16:45 04:45:03
112 120 ILLANES Rodrigo TARAPACA RALLY TEAM Husqvarna - TE 449 12:23:05 04:51:23
113 096 CID DE LA PAZ Pablo PCP ASISTENCIA / MED BETA - RR 450 12:23:11 04:51:29
114 050 SALVATIERRA Juan Carlos GHR HONDA HONDA - CRF450X 12:23:52 04:52:10
115 172 LUCCHESE MANUEL HUSABERG FACTORY TEAM HUSABERG - FE 450 RALLY 12:27:05 04:55:23
116 108 STEVENSON Iain MEMO TOURS - ALFIE COX TEAM KTM - 450 RALLY 12:28:38 04:56:56
117 112 GUYOMARC?H Yannick SCE PERFORMANCE / ASA POMPIERS DE PARIS YAMAHA - WRF 12:31:58 05:00:16
118 109 BUDWEG ARNDT BRASIL MOTO TOUR KTM - 450 RR 12:33:38 05:01:56
119 182 ZATKO JAN SLOVAKIA TURBOTEAM ZATKO BMW - G450X 12:37:29 05:05:47
120 140 REINIKE MARCO MARCO REINIKE KTM - 450 RALLY REPLICA 12:40:24 05:08:42
121 073 BONY BRUNO EMS KTM - 450 RR 12:41:26 05:09:44
122 128 ANO Julio TEAM NORMAND RAID YAMAHA - WRF 450 12:41:26 05:09:44
123 097 LAGRIVE MATTHIEU TEAM YAMAHA RACING YAMAHA - WR 450 cc Rally 12:45:24 05:13:42
124 158 VELLUTINO Carlo PERUANOS AL DAKAR KTM - 450 EXC 2011 12:55:23 05:23:41
125 099 CHERPIN Pierre   KTM - 450 RR 12:57:57 05:26:15
126 176 RAAF Greg MEMO TOURS - ALFIE COX TEAM KTM - 450 Replica 12:59:16 05:27:34
127 090 DIGUIET Gilles   KTM - 450 CC 13:00:23 05:28:41
128 095 MAZET Jean-Claude JCM RALLYE RAID KTM - 450 RR 13:04:30 05:32:48
129 115 BASSI GUSTAVO JVO RAGING YAMAHA PERGAMINO MOTO YAMAHA - WR 450 13:08:15 05:36:33
130 129 DEPOORTER Philippe WIM MOTORS DAKAR KTM - 450 13:20:56 05:49:14
131 069 PAYEN Hugo   YAMAHA - 450 WRF 13:26:17 05:54:35
132 111 ESPINASSE SYLVAIN SHERCO RALLY RAID - CROCOAVENTURES SHERCO - SR 450 13:28:43 05:57:01
133 152 TER BEEK RONALD GHR HONDA HONDA - CFR 450 X 13:32:39 06:00:57
134 124 TARLINGTON Craig WARTHOG RALLYE TEAM KTM - 450 RALLY 13:33:55 06:02:13
135 105 BARRON Jacques PERUANOS AL DAKAR KTM - 450 EXL 13:40:47 06:09:05
136 094 WEI Guanghui JINCHENG TEAM JINCHENG - JC 450Y 13:48:50 06:17:08
137 135 SCOTT-WILLIAMS Neil MEMO TOURS - ALFIE COX TEAM KTM - 450 Replica 13:52:11 06:20:29
138 125 ASTORI Gianernesto ABC RALLY ACTION TEAM KTM - 450 RR 14:10:27 06:38:45
139 179 PETRONE Sergio MISION EZEIZA DAKAR BETA - 450 14:19:30 06:47:48
140 127 KARATHANASSIS THEOCHARIS   YAMAHA - 450 14:38:34 07:06:52
141 121 DAVIDSON Mark FREEDOM RALLY RACING KTM - 450 RALLYE REPLICA 15:08:56 07:37:14
142 130 DETANG Dominique SHERCO RALLY RAID - CROCOAVENTURES SHERCO - SR 450 15:16:56 07:45:14
143 155 GALLO ANDREA FRANCO PICCO RACING YAMAHA - WRF 450 15:46:46 08:15:04
144 180 PICKERING Jago DESERT ROSE RACING KTM - 450EXC 16:40:30 09:08:48
145 147 STANFIELD Michael FREEDOM RALLY RACING KTM - 450 EXC 16:43:18 09:11:36
146 156 BARBERY Juan Jose MOTOMAX-HELMET RALLY TEAM BETA - RR 450 16:48:07 09:16:25
147 133 SCHNEIDER CHARLES SHERCO RALLY RAID - CROCOAVENTURES SHERCO - SR 450 18:18:00 10:46:18
148 162 FLAMBERT OLIVIER TEAM AL DESERT YAMAHA - 450 WR 19:25:44 11:54:02
149 153 BEKTAS SELCUK TURKISH TEAM KTM - 450 RALLY EXC 19:28:18 11:56:36
150 187 YOUNGER TOBIAS DESERT ROSE RACING KTM - 450EXC 19:46:48 12:15:06
151 142 CAREVIC Andrés INSTITUTO NACIONAL DEL DEPORTE YAMAHA - 450 WR 20:21:57 12:50:15
152 161 ORLANDO SALVATORE TEAM AL DESERT YAMAHA - 450WRF JVO 20:22:14 12:50:32
153 160 HAMEL ERIC   YAMAHA - 450 WRF 20:25:29 12:53:47

Partager cet article

Repost0
4 janvier 2012 3 04 /01 /janvier /2012 08:30

-krzysztof-holowczyc-.jpg

Classement général Auto Dakar apres la troisiéme étape

Rang Numéro Pilote/Equipage Equipe Marque - Modèle Temps Retard
1 304 HOLOWCZYC Krzysztof ORLEN X-RAID TEAM MINI - ALL4 RACING 05:51:06  
2 303 GORDON Robby SPEED ENERGY RACING HUMMER - H3 05:52:00 00:00:54
3 301 DE VILLIERS Giniel IMPERIAL TOYOTA TOYOTA - PICKUP HILUX 05:52:46 00:01:40
4 305 ROMA Joan (Nani) MONSTER ENERGY X-RAID TEAM MINI - ALL4 RACING 05:52:56 00:01:50
5 302 PETERHANSEL Stephane MONSTER ENERGY X-RAID TEAM MINI - ALL 4 RACING 05:53:47 00:02:41
6 300 AL-ATTIYAH Nasser saleh TEAM QATAR Hummer - H3 05:57:40 00:06:34
7 312 NOVITSKIY Leonid MONSTER ENERGY X-RAID TEAM MINI - ALL4 RACING 06:05:59 00:14:53
8 319 ALVAREZ Lucio ezequiel TOYOTA OVERDRIVE TOYOTA - HILUX PROTOTIPO 06:11:45 00:20:39
9 307 SOUSA Carlos TEAM GREAT WALL GREAT WALL - HAVAL 06:12:52 00:21:46
10 317 WEVERS Erik Riwald Dakar Team MITSUBISHI - RACING LANCER MRP10 06:17:12 00:26:06
11 315 VAN LOON Erik XDAKAR.COM MITSUBISHI - RACING LANCER 06:17:25 00:26:19
12 321 THOMASSE Pascal MD RALLYE SPORT MD RALLYE - BUGGY OPTIMUS 06:28:45 00:37:39
13 313 VOS DUNCAN IMPERIAL TOYOTA TOYOTA - HILUX 06:37:48 00:46:42
14 310 SPINELLI Guilherme MITSUBISHI BRAZIL MITSUBISHI - Racing Lancer 06:40:43 00:49:37
15 316 CHABOT Ronan TOYS - MOTORS - SMG SMG - BUGGY V8 06:47:13 00:56:07
16 326 DE AZEVEDO Jean PETROBRAS LUBRAX NISSAN - NAVARRA 06:47:46 00:56:40
17 325 GARAFULIC Boris MONSTER ENERGY X-RAID TEAM BMW - X3 CC 06:50:22 00:59:16
18 359 CORBETT Mark CENTURY PROPERTY DEVELOPMENTS RACING Century Racing - CR4 06:51:15 01:00:09
19 314 TEN BRINKE Bernhar Riwald Dakar Team MITSUBISHI - RACING LANCER MRP10 06:53:51 01:02:45
20 337 HUZINK GERT RIWALD DAKAR TEAM MITSUBISHI - RACING LANCER MRP10 06:58:18 01:07:12
21 331 MAGNALDI Thierry TEAM DESSOUDE DESSOUDE - BUGGY ORYX Diesel 07:08:54 01:17:48
22 320 PATISSIER Isabelle TEAM DESSOUDE DESSOUDE - BUGGY ORYX essence 07:09:20 01:18:14
23 369 GARCIA FRANCISCO JOSE SIXT UKRAINA SUBARU - FORESTER 07:18:47 01:27:41
24 308 TERRANOVA Orlando TOYOTA OVERDRIVE TOYOTA - Pickup Hilux 07:19:44 01:28:38
25 336 OLHOLM Geoffrey CAIRNS COCONUT HOLIDAY RESORT DESERT WARRIOR - RABE X1 07:20:00 01:28:54
26 383 SISTERNA Lino FAST & SPEED FAST & SPEED - prototipo buggy Evo III 07:25:09 01:34:03
27 349 KUZNETSOV Ilja REAUTOKLUBS MITSUBISHI - MPR10 07:25:33 01:34:27
28 366 BOUTRON Philippe TEAM CUMMINS FRANCE BUGGY - SMG 07:33:46 01:42:40
29 348 LEON Fernando AUTO GASCO TOYOTA - FJ CRUISER 07:37:54 01:46:48
30 339 MITSUHASHI Jun TEAM LAND CRUISER TOYOTA AUTO BODY TOYOTA - VDJ200 07:41:42 01:50:36
31 333 ZHOU Yuande CHENGDU RURAL COMMERCIAL BANK TEAM CHINA MITSUBISHI - L200 07:43:33 01:52:27
32 323 ERRANDONEA BERNARD SMG SMG - BUGGY 07:48:09 01:57:03
33 340 FOJ Javier TOYOTA PRISMA MTA TOYOTA - LAND CRUISER 155 07:49:52 01:58:46
34 378 MELNIKOV Anton REAUTOKLUBS MITSUBISHI - L200 TRITON 07:52:40 02:01:34
35 342 TERADA Masahiro TEAM LAND CRUISER TOYOTA AUTO BODY TOYOTA - VDJ200 07:56:50 02:05:44
36 332 OGORODNIKOV LEONID AMAROK OVERDRIVE VOLKSWAGEN - AMAROK OVERDRIVE 07:57:28 02:06:22
37 343 NESTERCHUK Vadym SIXT UKRAINA MITSUBISHI - L200 07:59:17 02:08:11
38 363 MASTROMATTEO Víctor PRORACE TEAM TOYOTA - SPORTECH 08:08:03 02:16:57
39 335 ZHOU Jihong TEAM DESSOUDE PROTO DESSOUDE - N05 08:08:56 02:17:50
40 368 FONTANA Norberto LA LEGION ARGENTINA SPEEDAGRO VOLKSWAGEN - AMAROK 08:12:48 02:21:42
41 346 ALHERAIZ Abdulla TEAM LARDEAU COMPETITION TOYOTA - LAND CRUISER 08:20:47 02:29:41
42 434 VIDAURRE CRISTOBAL AUTO GASCO TOYOTA - FJ CRUISER 08:21:16 02:30:10
43 365 BERNARD Eric TEAM TRIO RACING BMW - PROTO TRIO 08:21:59 02:30:53
44 341 WAUTERS Koen FERYN DAKAR TEAM TOYOTA - LANDCRUISER 08:24:21 02:33:15
45 385 MORIN Eric WILDCAT RAID BOWLER - WILDCAT 200 08:27:54 02:36:48
46 357 SILVA JUAN MANUEL LA LEGION ARGENTINA SPEEDAGRO VOLKSWAGEN - AMAROK 08:27:56 02:36:50
47 410 DI PALMA MARCOS SF COMPETICION TOYOTA - HILUX 4x4 08:32:45 02:41:39
48 322 MIRONENKO Alexander X-RAID TEAM BMW - X3 CC 08:36:15 02:45:09
49 344 LATRACH Jorge AUTO GASCO TOYOTA - LAND CRUISER FJ 08:37:51 02:46:45
50 309 LEAL DOS SANTOS Ricardo MONSTER ENERGY X-RAID TEAM MINI - ALL4 RACING 08:41:46 02:50:40
51 372 MALYSZ ADAM RMF CAROLINE TEAM MITSUBISHI - PAJERO 08:44:25 02:53:19
52 437 DIBOS JUAN   TOYOTA - FJ CRUISER 08:48:19 02:57:13
53 431 DAGNINO RAUL EDMUNDO JATON RACING TOYOTA - HILUX 4WD JATON RACING 08:48:24 02:57:18
54 425 BANACLOCHA BARBERA ROMAN IVAN JATON RACING TOYOTA - HILUX 08:51:38 03:00:32
55 468 BULACIA Marco TOYOTA TEAM BOLIVIA TOYOTA - LAND CRUISER 200 08:53:58 03:02:52
56 371 YACOPINI Alejandro miguel TOYOTA YACOPINI TEAM TOYOTA - SW4 09:03:13 03:12:07
57 392 REGUNASCHI Francisco claudio EL CHACARERO TOYOTA - LAND CRUISER 200 09:03:33 03:12:27
58 355 VANEIKEREN Mike DAKAR TEAM VON EIKEREN TOYOTA - RAV DESERT PROTO 09:10:42 03:19:36
59 415 MOGNIER Gerald TGO TOYOTA - KDJ120 09:16:42 03:25:36
60 358 FAVRE Frédéric AQUITAINE 4X4 TOYOTA - LAND CRUISER 105 HZJ 09:18:36 03:27:30
61 389 CASALE Francisco AUTO GASCO TOYOTA - TUNDRA 09:19:14 03:28:08
62 334 SZALAY Balazs OPEL DAKAR TEAM OPEL - ANTARA RR 09:25:12 03:34:06
63 422 MIOT BRUNO MD RALLYE SPORT MD RALLY - BUGGY OPTIMUS 09:27:33 03:36:27
64 351 SPATARO Emiliano LA LEGION ARGENTINA SPEEDAGRO VOLKSWAGEN - AMAROK 09:28:42 03:37:36
65 462 RIOS QUIROS MAXIMILIANO GABRIEL RIOS RALLY RAID TOYOTA - FJ CRUISER 09:32:10 03:41:04
66 379 THEURIOT Jean-philippe REVIVAL AVENTURES BOWLER - WILDCAT 09:32:14 03:41:08
67 329 CHAVIGNY Frederic TEAM DESSOUDE PROTO DESSOUDE - PROTO ATACAMA 09:42:30 03:51:24
68 457 BENSADOUN David RALLY RAID INTERNATIONAL DESERT WARRIOR - DESERT WARRIOR 09:42:41 03:51:35
69 398 BASSO Ronald JCB RACING TOYOTA - KDJ 120 09:45:11 03:54:05
70 391 HALPERN Sebastian TOYOTA SW4 TOYOTA - SW4 09:47:36 03:56:30
71 387 LIANG XI CHENGDU RURAL COMMERCIAL BANK TEAM CHINA MITSUBISHI - PAJERO 09:48:51 03:57:45
72 401 DE URIARTE PEREZ Joaquin   FORD - RAPTOR 09:50:50 03:59:44
73 376 HEYMANN Raz   BMW - Self construction. Made by the Co-driver Hillel Segal from Layogev Co 09:53:35 04:02:29
74 465 COFFARO NUNZIO TEAM AZIMUT VENEZUELA TOYOTA - HILUX 09:58:45 04:07:39
75 458 VAGNINI LEONARDO RAID 4X4 TV TEAM NISSAN - FRONTIER 10:02:37 04:11:31
76 433 LOPEZ PALOMINO JESUS ALTA RUTA 4X4 PERU MITSUBISHI - L200 4X4 10:05:31 04:14:25
77 374 ALCARAZ William POLARIS RACING POLARIS - RZR 900 10:06:15 04:15:09
78 473 DAGOSTINI Walter Augusto AUTOVIA DAKAR TEAM VOLKSWAGEN - AMAROK 10:14:54 04:23:48
79 471 PESCHIERA Gabriel COCOA RACING TOYOTA - TACOMA 10:17:41 04:26:35
80 424 GIRARD Christophe SMG TOYOTA - LAND CRUISER HDJ 100 10:18:08 04:27:02
81 414 TERENTYEV Alexander REAUTOKLUBS TOYOTA - LAND CRUISER 200 10:19:46 04:28:40
82 400 RAUD Philippe BISCAUTO TEAM TOYOTA - 10:22:37 04:31:31
83 452 ROBERTI Hernán Javier SANTA FE DAKAR TEAM NISSAN - FRONTIER D40M LE 10:26:27 04:35:21
84 411 MANNS Stefanie PRO DAKAR MC RAE - PRO DAKAR ENDURO 10:36:59 04:45:53
85 356 FERRAND DEL BUSTO Fernando TEAM PERU DAKAR AMAROK VOLKSWAGEN - AMAROK 10:40:58 04:49:52
86 367 JONCHERE Miguel TEAM TRIO RACING BOWLER - WILDCAT 10:41:26 04:50:20
87 345 ZHOU Yong TEAM GREAT WALL GREAT WALL - HAVAL SUV 10:45:07 04:54:01
88 423 GUO Hongzhi CAFE DE COLOMBIA DAKAR TEAM NISSAN - PATROL 10:46:05 04:54:59
89 456 JUAN FERNANDO LOPEZ MENOZZI PERUANOS AL DAKAR VOLKSWAGEN - AMAROK 10:48:37 04:57:31
90 396 VACHER Didier TECNOSPORT SPA NISSAN - PATROL 10:57:20 05:06:14
91 417 ROTTA DANTE ALBERTO MAR DEL PLATA DAKAR TEAM TOYOTA - 2007 10:58:02 05:06:56
92 380 PITA Francisco TEAM PRIME STADIUM SMG - SMG 10:58:29 05:07:23
93 419 LAMTZEV DEMETRIO TEAM DESERT PRO RACING S.A TOYOTA - HILUX 11:01:08 05:10:02
94 435 DUBBELDAM Raymond DAKAR TEAM VON EIKEREN BOWLER - Wildcat 11:04:28 05:13:22
95 405 MOSSI Edoardo DESERT EMOTION RACING TOYOTA - KDJ120 11:05:54 05:14:48
96 439 THUEIL FREDERIC   TOYOTA - LAND CRUISER HDJ 100 11:06:40 05:15:34
97 382 AMOR Eduardo LAS AMERICAS TOYOTA - HILUX 2010 11:13:45 05:22:39
98 444 WINGENS EGBERT DUTSCH DESERT WINGS JEEP - WRANGLER 2.8 CDI 11:25:23 05:34:17
99 390 GANDARA Omar eliseo MAR DEL PLATA DAKAR TEAM TOYOTA - HILUX 4X4 CABINA DOBLE SR C/AB 3.0 TDI 11:34:54 05:43:48
100 447 BARBERY Luis LUIS BARBERY RACING TOYOTA - LAND CRUISER 12:14:59 06:23:53
101 412 TOTANI Silvio RALLIART OFFROAD TEAM ITALY MITSUBISHI - PAJERO 12:15:44 06:24:38
102 377 LEYDS Chris PRO DAKAR MC RAE - PRO DAKAR ENDURO 12:18:55 06:27:49
103 373 SMULEVICI Etienne TEAM SODICARS RACING PROTO EUROREPAR - SPRINGBOKS 12:32:19 06:41:13
104 453 CÁCERES SIMONS Juan Carlos PERU RALLY RAID MOTORSPORTS NISSAN - PATROL 12:36:35 06:45:29
105 347 CORONEL Tim PRO DAKAR MC RAE - Prodakar McRae 4X2 12:56:28 07:05:22
106 393 KIEN WILLEM GO2DAKAR JEEP - RUBICON WRANGLER 12:59:57 07:08:51
107 375 SKILTON Darren MARK RACING BAJA AUTOMOTIVE - Revolution 6 13:11:28 07:20:22
108 446 GERMANO ANDRES GERMANO RALLY TEAM TOYOTA - HILUX 13:19:03 07:27:57
109 406 CALUBINI Loris TEAM PANDAKAR FIAT - PANDAKAR 4X4 14:01:11 08:10:05
110 395 THEUNISSEN HENK GO2DAKAR DODGE - RAM 2500 RACE 14:05:12 08:14:06
111 432 SEBESTYÉN SÁNDOR 4X4 OFF-ROAD CLUB SE TOYOTA - LAND CRUISER 14:24:50 08:33:44
112 466 HIDALGO SÁEZ CLAUDIO ANDRÉS TEAM CAN-AM / NEXTEL UTV CAN-AM - COMMANDER 14:25:37 08:34:31
113 408 CAFFI ALESSANDRO TEAM PANDAKAR FIAT - PANDAKAR 4X4 14:48:17 08:57:11
114 399 GRYSZCZUK Albert RMF CAROLINE TEAM MITSUBISHI - PAJERO 15:00:00 09:08:54
115 429 RIVERO NORBERTO TEAM PANEUS PANEUS - DKR 15:00:00 09:08:54
116 426 LOAN Isidro POLARIS SPAIN DAKAR TEAM POLARIS - RANGER RZR XP 900 15:04:00 09:12:54
117 327 SCHOTT Stephan X-RAID TEAM BMW - X3 CC 15:08:00 09:16:54
118 388 KIM Hernan COLCAR RACING TEAM MERCEDES BENZ 4X4 Todo terreno - ML 320 15:12:58 09:21:52
119 407 BEAUPRE Piotr NEORAID BMW - X5 CC 15:34:27 09:43:21
120 353 KOOLEN KEES GOKOBRA BUGGY - KOBRA 001 15:36:04 09:44:58
121 440 VAN DER KOLK Peter DAKAR TEAM VON EIKEREN TOYOTA - RAV 4 PROTO II 15:48:39 09:57:33
122 328 MC RAE Alister PRO DAKAR MC RAE - ENDURO MC-4 15:48:41 09:57:35
123 454 SANTORELLI MIGUEL SANTORELLI COMPETICION JEEP ESTANCIERA - ESTANCIERA 15:54:03 10:02:57
124 428 BEREZOVSKIY Denis TECNOSPORT SPA BOWLER - 16:02:22 10:11:16
125 467 GRIGOROV Anton TEAM LATVIA OSC - OSCAR O3 16:05:57 10:14:51
126 443 WEBER DIEGO DURO4X4.COM TOYOTA - TACOMA 16:06:16 10:15:10
127 416 ZUCCHI MARCO RALLIART OFFROAD TEAM ITALY MITSUBISHI - PAJERO 16:11:36 10:20:30
128 370 SAUKANS Maris TEAM LATVIA OSCAR - EO 16:34:19 10:43:13
129 409 MARRINI STEFANO RALLIART OFFROAD TEAM ITALY MITSUBISHI - PAJERO 16:49:11 10:58:05
130 418 NAIVIRT ROBERTO DEL VISO DAKAR TEAM TOYOTA - HILUX 16:51:14 11:00:08
131 469 TRONCOSO Claudio NEXTEL CAN AM CAN-AM - BUGGY UTV COMMANDER 17:37:05 11:45:59
132 361 VAN DEN GOORBERG Jurgen GOKOBRA - BUGGY KOBRA 001 18:18:28 12:27:22
133 470 IBARZ ALZURIA Roberto POLARIS SPAIN DAKAR TEAM POLARIS - RZR 900 18:40:30 12:49:24
134 464 HANSE Jan FLEVO DAKAR TEAM MITSUBISHI - PAJERO EVOLUTION 19:00:00 13:08:54
135 455 BOLLERO Rodolfo osvaldo LOS PERALTES RACING TEAM POLARIS - XP 900 19:06:54 13:15:48
136 420 GRUCCIO Roque Fabian GG TEAM HYUNDAI - SANTA FE 19:31:06 13:40:00

Partager cet article

Repost0
3 janvier 2012 2 03 /01 /janvier /2012 08:39

marc.jpg

 Classement général Dakar moto aprés la deuxiéme étape

place Num pilote pétarou
1 1 Marc COMA KTM
2 4 Francisco LOPEZ APRILIA
3 2 Cyril DESPRES KTM
4 11 Jakub PRZYGONSKI KTM
5 23 Joan BARREDA BORT HUSQVARNA
6 14 David CASTEU YAMAHA
7 27 Javier PIZZOLITO HONDA
8 6 Pal Anders ULLEVALSETER KTM
9 5 Juan PEDRERO GARCIA KTM
10 10 Jordi VILADOMS KTM
11 22 Alain DUCLOS APRILIA
12 3 Helder RODRIGUES YAMAHA
13 8 Ruben FARIA KTM
14 20 Gerard FARRES GUELL KTM
15 28 FELIPE ZANOL KTM
16 34 ALESSANDRO BOTTURI KTM
17 25 Daniel GOUET HONDA
18 32 Stefan SVITKO KTM
19 133 CHARLES SCHNEIDER SHERCO
20 9 Quinn Alexis CODY HONDA
21 21 JOHNNY AUBERT KTM
22 7 Paulo GONCALVES Husqvarna
23 17 Jacek CZACHOR KTM
24 26 Jose helio RODRIGUES FILHO HUQSVARNA
25 35 Paolo CECI KTM
26 16 Olivier PAIN YAMAHA
27 24 Miran STANOVNIK KTM
28 15 Frans VERHOEVEN SHERCO
29 18 Henk KNUIMAN KTM
30 82 Vincent GUINDANI YAMAHA
31 49 Marek DABROWSKI KTM
32 39 Emanuel GYENES KTM
33 37 IKE KLAUMANN HUQSVARNA
34 110 Christopher BIRCH KTM
35 40 Mathieu SERRADORI KTM
36 12 Jose Manuel PELLICER HUSQVARNA
37 113 Rodney FAGGOTTER HUSABERG
38 31 Ivan JAKES BMW
39 43 Michael PISANO KTM
40 57 Daniel WILLEMSEN HONDA
41 48 Hans-jos LIEFHEBBER KTM
42 33 Thierry BETHYS YAMAHA
43 148 Mauricio GOMEZ YAMAHA
44 64 DANIEL SCHRÖDER KTM
45 53 Claudio RODRIGUEZ HONDA
46 144 Darryl CURTIS KTM
47 183 Pablo RODRIGUEZ HONDA
48 51 Francisco ARREDONDO KTM
49 86 Jes MUNK KTM
50 42 Jaime PROHENS HONDA
51 145 Dean NUTTALL KTM
52 77 Franco PICCO YAMAHA
53 89 DENISIO NASCIMENTO HONDA
54 185 MARCELO SANCHEZ KAWASAKI
55 41 Felipe PROHENS HONDA (Transformada)
56 45 Eulalia SANZ PLA-GILIBERT GAS - GAS
57 60 Stanley WATT KTM
58 46 Pedro BIANCHI PRATA HUSQUARNA
59 168 DEMIAN GUIRAL HONDA
60 79 EDOUARD BOULANGER APRILIA
61 55 Kemal MERKIT KTM
62 30 Marc GUASCH GAS - GAS
63 84 Patrice CARILLON KTM
64 81 NED SUESSE KTM
65 173 WILSON MALO KTM
66 186 JAN VAN GERVEN HONDA
67 154 ROBERTO ANTONIO GAJDOSECH YAMAHA
68 164 DIEGO DEMELCHORI KAWASAKI
69 184 SENKALAYCI SAKIR KTM
70 67 MOHAMMED BALOOSHI KTM
71 165 GEERT MULDER HONDA
72 177 MARCO VAN GEEL HONDA
73 98 CHRISTOPHE BLONDEAU YAMAHA
74 62 David SCHWARZ HUSABERG
75 181 FELIPE RIOS KTM
76 63 Gabor SAGHMEISTER KTM
77 114 ANDREA FESANI RIEJU
78 56 Jean-Christophe MENARD YAMAHA
79 92 Stephane HAMARD KTM
80 169 EDUARDO HEINRICH DEL VALLE KTM
81 58 Miguel PUERTAS HERRERA YAMAHA
82 61 Dimas MATTOS KTM
83 66 Etienne LORMAND YAMAHA
84 87 Christophe MEILLAT KAWASAKI
85 71 Marcel BUTUZA HONDA
86 72 SERGE GOUNON KTM
87 159 Jamie CHITTICK HONDA
88 149 DUSAN CIPKA BMW
89 74 Erik KOFMAN KTM
90 59 Filippo CIOTTI RIEJU
91 131 Herve THEURIOT YAMAHA
92 91 NICOLA TONETTI HONDA
93 76 Claudio PEDERZOLI YAMAHA
94 122 Eric PALANTE KTM
95 29 Thomas BERGLUND HUSABERG
96 116 Christophe GEOFFROY HONDA
97 136 GINTAUTAS IGARIS YAMAHA
98 80 Pablo oscar PASCUAL JINCHENG
99 100 Jan VESELY YAMAHA
100 151 Juan Manuel BEALUSTEGUI YAMAHA
101 97 MATTHIEU LAGRIVE YAMAHA
102 140 MARCO REINIKE KTM
103 152 RONALD TER BEEK HONDA
104 178 JAN VAN WOERKUM HONDA
105 65 Laurent LAZARD YAMAHA
106 150 Luis BELAUSTEGUI KTM
107 102 Eduardo ALAN Yamaha
108 107 Ronnie BODINGER HUSABERG
109 108 Iain STEVENSON KTM
110 93 Jorge GOMEZ Husqvarna
111 68 David BARROT YAMAHA
112 75 Pablo BUSIN YAMAHA
113 90 Gilles DIGUIET KTM
114 170 FERDINAND KREIDL KTM
115 126 Olivier MUTELET YAMAHA
116 117 Federico GHITTI KTM
117 73 BRUNO BONY KTM
118 120 Rodrigo ILLANES Husqvarna
119 174 Paco MARTÍNEZ KAWASAKI
120 179 Sergio PETRONE BETA
121 99 Pierre CHERPIN KTM
122 128 Julio ANO YAMAHA
123 112 Yannick GUYOMARC’H YAMAHA
124 109 ARNDT BUDWEG KTM
125 96 Pablo CID DE LA PAZ BETA
126 106 JAMES EMBRO KTM
127 129 Philippe DEPOORTER KTM
128 104 Vicente DE BENEDICTIS NETO Beta
129 78 ROSA ROMERO FONT KTM
130 138 SEBASTIEN LECOQ YAMAHA
131 158 Carlo VELLUTINO KTM
132 157 SERGIO CERDERA KAWASAKI
133 127 THEOCHARIS KARATHANASSIS YAMAHA
134 85 Pedro Manuel PENATE MUNOZ KTM
135 105 Jacques BARRON KTM
136 125 Gianernesto ASTORI KTM
137 115 GUSTAVO BASSI YAMAHA
138 172 MANUEL LUCCHESE HUSABERG
139 135 Neil SCOTT-WILLIAMS KTM
140 182 JAN ZATKO BMW
141 176 Greg RAAF KTM
142 94 Guanghui WEI JINCHENG
143 121 Mark DAVIDSON KTM
144 111 SYLVAIN ESPINASSE SHERCO
145 155 ANDREA GALLO YAMAHA
146 50 Juan Carlos SALVATIERRA HONDA
147 95 Jean-Claude MAZET KTM
148 124 Craig TARLINGTON KTM
149 130 Dominique DETANG SHERCO
150 69 Hugo PAYEN YAMAHA
151 134 David SERRA RIPOLL HONDA
152 156 Juan Jose BARBERY BETA
153 180 Jago PICKERING KTM
154 147 Michael STANFIELD KTM
155 153 SELCUK BEKTAS KTM
156 142 Andrés CAREVIC YAMAHA
157 187 TOBIAS YOUNGER KTM
158 160 ERIC HAMEL YAMAHA
159 161 SALVATORE ORLANDO YAMAHA
160 162 OLIVIER FLAMBERT YAMAHA
161 163 ERIC CHAPSAL KTM

Partager cet article

Repost0
3 janvier 2012 2 03 /01 /janvier /2012 08:31

dakar-2012-stephane-peterhansel.jpg

 

Classement général Dakar 2012 apres la dexieme étape

 

 

1-302 PETERHANSEL (FRA) COTTRET (FRA) MINI 03:20:33

 

2-303 GORDON (USA) CAMPBELL (USA) HUMMER 03:23:0100:02:28-

 

3-304 HOLOWCZYC (POL) FORTIN (BEL) MINI 03:23:0600:02:33-

 

4-301 DE VILLIERS (ZAF) VON ZITZEWITZ (DEU) TOYOTA 03:24:2200:03:49-

 

5-305 ROMA (ESP) PÉRIN (FRA) MINI 03:26:0500:05:32-

 

6-300 AL-ATTIYAH (QAT) CRUZ (ESP) HUMMER 03:29:2000:08:47-

 

7-310 SPINELLI (BRA) HADDAD (BRA) MITSUBISHI 03:31:4000:11:07-

 

8-312 NOVITSKIY (RUS) SCHULZ (DEU) MINI 03:31:5000:11:17-

 

9-309 LEAL DOS SANTOS (PRT) FIUZA (PRT) MINI 03:35:1400:14:41-

 

10-319 ALVAREZ (ARG) GRAUE (ARG) TOYOTA 03:35:5500:15:22

 

plus info sur Caradisiac

Partager cet article

Repost0